<?xml version="1.0" encoding="UTF-8" standalone="no" ?>
<gpx xmlns="http://www.topografix.com/GPX/1/1" xmlns:xsi="http://www.w3.org/2001/XMLSchema-instance" xsi:schemaLocation="http://www.topografix.com/GPX/1/1 http://www.topografix.com/GPX/1/1/gpx.xsd" version="1.1" creator="VisuGPX - https://www.visugpx.com">
  <metadata>
    <name>Rando du 17 janvier </name>
    <desc><![CDATA[Rando ACC du 17 janvier sous un beau soleil, avec quelques passages verglacés.]]></desc>
  </metadata>
  <trk>
    <name><![CDATA[2017-01-17 08:43]]></name>
    <desc><![CDATA[<p>Heure de départ: 01/17/2017 08:43</p><p>Heure d'arrivée: 01/17/2017 11:27</p><p>Distance: 13,3 km (02:44)</p><p>Temps déplacement: 02:31</p><p>Vitesse moyenne: 4,84 km/h</p><p>Vitesse moyenne mouv.: 5,27 km/h</p><p>Vitesse Max.: 16,39km/h</p><p>Altitude minimale: -24 m</p><p>Altitude maximale: 34 m</p><p>Vitesse de montée: 177,4 m/h</p><p>Vitesse de descente: -175,6 m/h</p><p>Gain d'altitude: 176 m</p><p>Perte d'altitude: -186 m</p><p>Temps de montée: 00:59</p><p>Temps de descente: 01:03</p><hr align="center" width="480" style="height: 2px; width: 517px"/>]]></desc>
    <trkseg>
      <trkpt lat="47.26985" lon="-1.55238">
        <ele>30.43</ele>
        <time>2017-01-17T07:43:06Z</time>
      </trkpt>
      <trkpt lat="47.26987" lon="-1.55265">
        <ele>33.17</ele>
        <time>2017-01-17T07:43:25Z</time>
      </trkpt>
      <trkpt lat="47.27" lon="-1.55284">
        <ele>33.85</ele>
        <time>2017-01-17T07:43:40Z</time>
      </trkpt>
      <trkpt lat="47.27013" lon="-1.55304">
        <ele>34.02</ele>
        <time>2017-01-17T07:43:52Z</time>
      </trkpt>
      <trkpt lat="47.27012" lon="-1.55333">
        <ele>33.66</ele>
        <time>2017-01-17T07:44:07Z</time>
      </trkpt>
      <trkpt lat="47.27011" lon="-1.55361">
        <ele>33.11</ele>
        <time>2017-01-17T07:44:20Z</time>
      </trkpt>
      <trkpt lat="47.27024" lon="-1.55383">
        <ele>30.5</ele>
        <time>2017-01-17T07:44:40Z</time>
      </trkpt>
      <trkpt lat="47.27031" lon="-1.55409">
        <ele>29.45</ele>
        <time>2017-01-17T07:44:51Z</time>
      </trkpt>
      <trkpt lat="47.27037" lon="-1.55434">
        <ele>29.25</ele>
        <time>2017-01-17T07:45:15Z</time>
      </trkpt>
      <trkpt lat="47.27036" lon="-1.55462">
        <ele>29.84</ele>
        <time>2017-01-17T07:45:30Z</time>
      </trkpt>
      <trkpt lat="47.27033" lon="-1.55491">
        <ele>30.72</ele>
        <time>2017-01-17T07:45:45Z</time>
      </trkpt>
      <trkpt lat="47.27041" lon="-1.55521">
        <ele>31.53</ele>
        <time>2017-01-17T07:46:01Z</time>
      </trkpt>
      <trkpt lat="47.2706" lon="-1.55536">
        <ele>31.1</ele>
        <time>2017-01-17T07:46:05Z</time>
      </trkpt>
      <trkpt lat="47.27078" lon="-1.55545">
        <ele>30.2</ele>
        <time>2017-01-17T07:46:11Z</time>
      </trkpt>
      <trkpt lat="47.27093" lon="-1.55562">
        <ele>28.07</ele>
        <time>2017-01-17T07:46:28Z</time>
      </trkpt>
      <trkpt lat="47.27112" lon="-1.55563">
        <ele>26.8</ele>
        <time>2017-01-17T07:46:43Z</time>
      </trkpt>
      <trkpt lat="47.27128" lon="-1.55575">
        <ele>25.44</ele>
        <time>2017-01-17T07:47:09Z</time>
      </trkpt>
      <trkpt lat="47.27146" lon="-1.55553">
        <ele>25.19</ele>
        <time>2017-01-17T07:47:31Z</time>
      </trkpt>
      <trkpt lat="47.27157" lon="-1.55531">
        <ele>25.13</ele>
        <time>2017-01-17T07:47:54Z</time>
      </trkpt>
      <trkpt lat="47.27162" lon="-1.55504">
        <ele>24.28</ele>
        <time>2017-01-17T07:48:09Z</time>
      </trkpt>
      <trkpt lat="47.27178" lon="-1.55486">
        <ele>23.67</ele>
        <time>2017-01-17T07:48:30Z</time>
      </trkpt>
      <trkpt lat="47.27191" lon="-1.55462">
        <ele>23.41</ele>
        <time>2017-01-17T07:48:40Z</time>
      </trkpt>
      <trkpt lat="47.27196" lon="-1.55437">
        <ele>23.33</ele>
        <time>2017-01-17T07:48:50Z</time>
      </trkpt>
      <trkpt lat="47.27211" lon="-1.55417">
        <ele>24.13</ele>
        <time>2017-01-17T07:49:09Z</time>
      </trkpt>
      <trkpt lat="47.27223" lon="-1.55397">
        <ele>25.82</ele>
        <time>2017-01-17T07:49:33Z</time>
      </trkpt>
      <trkpt lat="47.27239" lon="-1.55383">
        <ele>27.32</ele>
        <time>2017-01-17T07:49:48Z</time>
      </trkpt>
      <trkpt lat="47.27251" lon="-1.55361">
        <ele>28.75</ele>
        <time>2017-01-17T07:50:02Z</time>
      </trkpt>
      <trkpt lat="47.27255" lon="-1.55335">
        <ele>29.08</ele>
        <time>2017-01-17T07:50:19Z</time>
      </trkpt>
      <trkpt lat="47.2726" lon="-1.55309">
        <ele>28.9</ele>
        <time>2017-01-17T07:50:33Z</time>
      </trkpt>
      <trkpt lat="47.27273" lon="-1.55289">
        <ele>28.67</ele>
        <time>2017-01-17T07:50:46Z</time>
      </trkpt>
      <trkpt lat="47.27287" lon="-1.55271">
        <ele>28.72</ele>
        <time>2017-01-17T07:51:01Z</time>
      </trkpt>
      <trkpt lat="47.27303" lon="-1.55255">
        <ele>28.74</ele>
        <time>2017-01-17T07:51:16Z</time>
      </trkpt>
      <trkpt lat="47.27316" lon="-1.55235">
        <ele>28.84</ele>
        <time>2017-01-17T07:51:33Z</time>
      </trkpt>
      <trkpt lat="47.27333" lon="-1.55221">
        <ele>29.59</ele>
        <time>2017-01-17T07:51:51Z</time>
      </trkpt>
      <trkpt lat="47.27346" lon="-1.55203">
        <ele>30.57</ele>
        <time>2017-01-17T07:52:11Z</time>
      </trkpt>
      <trkpt lat="47.27352" lon="-1.55176">
        <ele>30.39</ele>
        <time>2017-01-17T07:52:31Z</time>
      </trkpt>
      <trkpt lat="47.27353" lon="-1.5515">
        <ele>29.22</ele>
        <time>2017-01-17T07:52:46Z</time>
      </trkpt>
      <trkpt lat="47.2737" lon="-1.55133">
        <ele>26.66</ele>
        <time>2017-01-17T07:53:18Z</time>
      </trkpt>
      <trkpt lat="47.27388" lon="-1.55125">
        <ele>25.96</ele>
        <time>2017-01-17T07:53:28Z</time>
      </trkpt>
      <trkpt lat="47.27406" lon="-1.55124">
        <ele>25.1</ele>
        <time>2017-01-17T07:53:45Z</time>
      </trkpt>
      <trkpt lat="47.2742" lon="-1.55108">
        <ele>24.2</ele>
        <time>2017-01-17T07:53:54Z</time>
      </trkpt>
      <trkpt lat="47.27424" lon="-1.55081">
        <ele>22.9</ele>
        <time>2017-01-17T07:54:06Z</time>
      </trkpt>
      <trkpt lat="47.27432" lon="-1.55056">
        <ele>21.65</ele>
        <time>2017-01-17T07:54:20Z</time>
      </trkpt>
      <trkpt lat="47.2743" lon="-1.55029">
        <ele>20.83</ele>
        <time>2017-01-17T07:54:32Z</time>
      </trkpt>
      <trkpt lat="47.27427" lon="-1.55002">
        <ele>20.54</ele>
        <time>2017-01-17T07:54:43Z</time>
      </trkpt>
      <trkpt lat="47.27421" lon="-1.54977">
        <ele>20.7</ele>
        <time>2017-01-17T07:55:01Z</time>
      </trkpt>
      <trkpt lat="47.27419" lon="-1.5495">
        <ele>20.97</ele>
        <time>2017-01-17T07:55:17Z</time>
      </trkpt>
      <trkpt lat="47.27415" lon="-1.54923">
        <ele>21.01</ele>
        <time>2017-01-17T07:55:28Z</time>
      </trkpt>
      <trkpt lat="47.27412" lon="-1.54895">
        <ele>21.21</ele>
        <time>2017-01-17T07:55:41Z</time>
      </trkpt>
      <trkpt lat="47.2741" lon="-1.54867">
        <ele>21.44</ele>
        <time>2017-01-17T07:55:53Z</time>
      </trkpt>
      <trkpt lat="47.27407" lon="-1.5484">
        <ele>21.83</ele>
        <time>2017-01-17T07:56:08Z</time>
      </trkpt>
      <trkpt lat="47.27414" lon="-1.54816">
        <ele>22.01</ele>
        <time>2017-01-17T07:56:20Z</time>
      </trkpt>
      <trkpt lat="47.27412" lon="-1.54789">
        <ele>21.62</ele>
        <time>2017-01-17T07:56:43Z</time>
      </trkpt>
      <trkpt lat="47.27401" lon="-1.54766">
        <ele>20.97</ele>
        <time>2017-01-17T07:57:00Z</time>
      </trkpt>
      <trkpt lat="47.27395" lon="-1.5474">
        <ele>21.11</ele>
        <time>2017-01-17T07:57:26Z</time>
      </trkpt>
      <trkpt lat="47.27403" lon="-1.54715">
        <ele>20.84</ele>
        <time>2017-01-17T07:57:34Z</time>
      </trkpt>
      <trkpt lat="47.27416" lon="-1.54694">
        <ele>20.41</ele>
        <time>2017-01-17T07:57:47Z</time>
      </trkpt>
      <trkpt lat="47.27431" lon="-1.54678">
        <ele>20.21</ele>
        <time>2017-01-17T07:58:01Z</time>
      </trkpt>
      <trkpt lat="47.27445" lon="-1.54659">
        <ele>20.31</ele>
        <time>2017-01-17T07:58:15Z</time>
      </trkpt>
      <trkpt lat="47.27459" lon="-1.54641">
        <ele>20.74</ele>
        <time>2017-01-17T07:58:34Z</time>
      </trkpt>
      <trkpt lat="47.27469" lon="-1.54614">
        <ele>21.27</ele>
        <time>2017-01-17T07:58:46Z</time>
      </trkpt>
      <trkpt lat="47.27481" lon="-1.54595">
        <ele>22.33</ele>
        <time>2017-01-17T07:58:58Z</time>
      </trkpt>
      <trkpt lat="47.27499" lon="-1.54583">
        <ele>24.11</ele>
        <time>2017-01-17T07:59:15Z</time>
      </trkpt>
      <trkpt lat="47.27516" lon="-1.54567">
        <ele>25.39</ele>
        <time>2017-01-17T07:59:28Z</time>
      </trkpt>
      <trkpt lat="47.2753" lon="-1.54549">
        <ele>26.64</ele>
        <time>2017-01-17T07:59:42Z</time>
      </trkpt>
      <trkpt lat="47.27535" lon="-1.54524">
        <ele>27.68</ele>
        <time>2017-01-17T07:59:56Z</time>
      </trkpt>
      <trkpt lat="47.27536" lon="-1.54496">
        <ele>28.45</ele>
        <time>2017-01-17T08:00:12Z</time>
      </trkpt>
      <trkpt lat="47.27528" lon="-1.54471">
        <ele>29.08</ele>
        <time>2017-01-17T08:00:27Z</time>
      </trkpt>
      <trkpt lat="47.2752" lon="-1.54446">
        <ele>29.41</ele>
        <time>2017-01-17T08:00:39Z</time>
      </trkpt>
      <trkpt lat="47.27514" lon="-1.54421">
        <ele>29.55</ele>
        <time>2017-01-17T08:00:50Z</time>
      </trkpt>
      <trkpt lat="47.27506" lon="-1.54397">
        <ele>29.68</ele>
        <time>2017-01-17T08:01:08Z</time>
      </trkpt>
      <trkpt lat="47.27498" lon="-1.54372">
        <ele>29.76</ele>
        <time>2017-01-17T08:01:26Z</time>
      </trkpt>
      <trkpt lat="47.27492" lon="-1.54346">
        <ele>29.9</ele>
        <time>2017-01-17T08:01:40Z</time>
      </trkpt>
      <trkpt lat="47.27481" lon="-1.54325">
        <ele>29.91</ele>
        <time>2017-01-17T08:01:52Z</time>
      </trkpt>
      <trkpt lat="47.27475" lon="-1.54298">
        <ele>29.66</ele>
        <time>2017-01-17T08:02:04Z</time>
      </trkpt>
      <trkpt lat="47.27465" lon="-1.54275">
        <ele>29.26</ele>
        <time>2017-01-17T08:02:18Z</time>
      </trkpt>
      <trkpt lat="47.2746" lon="-1.54248">
        <ele>28.68</ele>
        <time>2017-01-17T08:02:32Z</time>
      </trkpt>
      <trkpt lat="47.27454" lon="-1.54222">
        <ele>28.43</ele>
        <time>2017-01-17T08:02:43Z</time>
      </trkpt>
      <trkpt lat="47.2745" lon="-1.54196">
        <ele>28.4</ele>
        <time>2017-01-17T08:02:50Z</time>
      </trkpt>
      <trkpt lat="47.27442" lon="-1.54171">
        <ele>28.67</ele>
        <time>2017-01-17T08:03:06Z</time>
      </trkpt>
      <trkpt lat="47.27431" lon="-1.54149">
        <ele>28.78</ele>
        <time>2017-01-17T08:03:22Z</time>
      </trkpt>
      <trkpt lat="47.27423" lon="-1.54124">
        <ele>28.15</ele>
        <time>2017-01-17T08:03:32Z</time>
      </trkpt>
      <trkpt lat="47.27416" lon="-1.54099">
        <ele>27.07</ele>
        <time>2017-01-17T08:03:46Z</time>
      </trkpt>
      <trkpt lat="47.27405" lon="-1.5407">
        <ele>26.33</ele>
        <time>2017-01-17T08:04:00Z</time>
      </trkpt>
      <trkpt lat="47.27393" lon="-1.54048">
        <ele>25.93</ele>
        <time>2017-01-17T08:04:17Z</time>
      </trkpt>
      <trkpt lat="47.27379" lon="-1.54029">
        <ele>25.13</ele>
        <time>2017-01-17T08:04:30Z</time>
      </trkpt>
      <trkpt lat="47.2737" lon="-1.54006">
        <ele>24.17</ele>
        <time>2017-01-17T08:04:41Z</time>
      </trkpt>
      <trkpt lat="47.27361" lon="-1.53982">
        <ele>22.89</ele>
        <time>2017-01-17T08:04:56Z</time>
      </trkpt>
      <trkpt lat="47.27349" lon="-1.5396">
        <ele>21.63</ele>
        <time>2017-01-17T08:05:11Z</time>
      </trkpt>
      <trkpt lat="47.27339" lon="-1.53936">
        <ele>20.7</ele>
        <time>2017-01-17T08:05:24Z</time>
      </trkpt>
      <trkpt lat="47.2733" lon="-1.53911">
        <ele>19.9</ele>
        <time>2017-01-17T08:05:38Z</time>
      </trkpt>
      <trkpt lat="47.27322" lon="-1.53887">
        <ele>19.42</ele>
        <time>2017-01-17T08:05:53Z</time>
      </trkpt>
      <trkpt lat="47.27313" lon="-1.53864">
        <ele>19.18</ele>
        <time>2017-01-17T08:06:04Z</time>
      </trkpt>
      <trkpt lat="47.27302" lon="-1.53842">
        <ele>19.15</ele>
        <time>2017-01-17T08:06:18Z</time>
      </trkpt>
      <trkpt lat="47.27293" lon="-1.53819">
        <ele>19.36</ele>
        <time>2017-01-17T08:06:30Z</time>
      </trkpt>
      <trkpt lat="47.27283" lon="-1.53791">
        <ele>19.53</ele>
        <time>2017-01-17T08:06:38Z</time>
      </trkpt>
      <trkpt lat="47.27273" lon="-1.53767">
        <ele>20.03</ele>
        <time>2017-01-17T08:06:48Z</time>
      </trkpt>
      <trkpt lat="47.27258" lon="-1.53747">
        <ele>21.01</ele>
        <time>2017-01-17T08:07:06Z</time>
      </trkpt>
      <trkpt lat="47.27248" lon="-1.53724">
        <ele>21.49</ele>
        <time>2017-01-17T08:07:15Z</time>
      </trkpt>
      <trkpt lat="47.27235" lon="-1.53706">
        <ele>22.13</ele>
        <time>2017-01-17T08:07:27Z</time>
      </trkpt>
      <trkpt lat="47.27223" lon="-1.53686">
        <ele>23.01</ele>
        <time>2017-01-17T08:07:43Z</time>
      </trkpt>
      <trkpt lat="47.27204" lon="-1.53686">
        <ele>23.82</ele>
        <time>2017-01-17T08:08:05Z</time>
      </trkpt>
      <trkpt lat="47.27186" lon="-1.53681">
        <ele>23.54</ele>
        <time>2017-01-17T08:08:45Z</time>
      </trkpt>
      <trkpt lat="47.27169" lon="-1.53671">
        <ele>23.67</ele>
        <time>2017-01-17T08:08:59Z</time>
      </trkpt>
      <trkpt lat="47.27151" lon="-1.53665">
        <ele>23.82</ele>
        <time>2017-01-17T08:09:16Z</time>
      </trkpt>
      <trkpt lat="47.27134" lon="-1.53656">
        <ele>23.75</ele>
        <time>2017-01-17T08:09:28Z</time>
      </trkpt>
      <trkpt lat="47.27117" lon="-1.53643">
        <ele>23.69</ele>
        <time>2017-01-17T08:09:40Z</time>
      </trkpt>
      <trkpt lat="47.27106" lon="-1.5362">
        <ele>23.62</ele>
        <time>2017-01-17T08:09:51Z</time>
      </trkpt>
      <trkpt lat="47.27089" lon="-1.53634">
        <ele>23.24</ele>
        <time>2017-01-17T08:10:03Z</time>
      </trkpt>
      <trkpt lat="47.27072" lon="-1.5364">
        <ele>22.52</ele>
        <time>2017-01-17T08:10:17Z</time>
      </trkpt>
      <trkpt lat="47.27053" lon="-1.53645">
        <ele>21.8</ele>
        <time>2017-01-17T08:10:30Z</time>
      </trkpt>
      <trkpt lat="47.27036" lon="-1.53657">
        <ele>21.23</ele>
        <time>2017-01-17T08:10:42Z</time>
      </trkpt>
      <trkpt lat="47.27022" lon="-1.53676">
        <ele>20.76</ele>
        <time>2017-01-17T08:10:54Z</time>
      </trkpt>
      <trkpt lat="47.27011" lon="-1.53698">
        <ele>20.46</ele>
        <time>2017-01-17T08:11:13Z</time>
      </trkpt>
      <trkpt lat="47.27008" lon="-1.53727">
        <ele>19.94</ele>
        <time>2017-01-17T08:11:29Z</time>
      </trkpt>
      <trkpt lat="47.27002" lon="-1.53752">
        <ele>19.29</ele>
        <time>2017-01-17T08:11:43Z</time>
      </trkpt>
      <trkpt lat="47.26992" lon="-1.53775">
        <ele>18.84</ele>
        <time>2017-01-17T08:11:55Z</time>
      </trkpt>
      <trkpt lat="47.2699" lon="-1.53802">
        <ele>18.55</ele>
        <time>2017-01-17T08:12:07Z</time>
      </trkpt>
      <trkpt lat="47.27" lon="-1.53828">
        <ele>17.86</ele>
        <time>2017-01-17T08:12:24Z</time>
      </trkpt>
      <trkpt lat="47.2702" lon="-1.53843">
        <ele>17.78</ele>
        <time>2017-01-17T08:12:28Z</time>
      </trkpt>
      <trkpt lat="47.27011" lon="-1.53866">
        <ele>18.06</ele>
        <time>2017-01-17T08:12:45Z</time>
      </trkpt>
      <trkpt lat="47.26992" lon="-1.53865">
        <ele>18.01</ele>
        <time>2017-01-17T08:12:54Z</time>
      </trkpt>
      <trkpt lat="47.26974" lon="-1.53859">
        <ele>17.67</ele>
        <time>2017-01-17T08:13:06Z</time>
      </trkpt>
      <trkpt lat="47.26954" lon="-1.53851">
        <ele>16.74</ele>
        <time>2017-01-17T08:13:23Z</time>
      </trkpt>
      <trkpt lat="47.26936" lon="-1.53844">
        <ele>16.18</ele>
        <time>2017-01-17T08:13:38Z</time>
      </trkpt>
      <trkpt lat="47.26918" lon="-1.53849">
        <ele>15.7</ele>
        <time>2017-01-17T08:13:55Z</time>
      </trkpt>
      <trkpt lat="47.26899" lon="-1.5385">
        <ele>15.17</ele>
        <time>2017-01-17T08:14:07Z</time>
      </trkpt>
      <trkpt lat="47.26884" lon="-1.53866">
        <ele>14.34</ele>
        <time>2017-01-17T08:14:21Z</time>
      </trkpt>
      <trkpt lat="47.26866" lon="-1.53869">
        <ele>12.87</ele>
        <time>2017-01-17T08:14:34Z</time>
      </trkpt>
      <trkpt lat="47.26848" lon="-1.53861">
        <ele>11.02</ele>
        <time>2017-01-17T08:14:54Z</time>
      </trkpt>
      <trkpt lat="47.26827" lon="-1.53859">
        <ele>10.28</ele>
        <time>2017-01-17T08:15:05Z</time>
      </trkpt>
      <trkpt lat="47.26809" lon="-1.53861">
        <ele>9.59</ele>
        <time>2017-01-17T08:15:18Z</time>
      </trkpt>
      <trkpt lat="47.2679" lon="-1.53861">
        <ele>8.66</ele>
        <time>2017-01-17T08:15:37Z</time>
      </trkpt>
      <trkpt lat="47.26772" lon="-1.5387">
        <ele>7.26</ele>
        <time>2017-01-17T08:16:06Z</time>
      </trkpt>
      <trkpt lat="47.26755" lon="-1.53885">
        <ele>7.1</ele>
        <time>2017-01-17T08:16:19Z</time>
      </trkpt>
      <trkpt lat="47.26739" lon="-1.53897">
        <ele>7.02</ele>
        <time>2017-01-17T08:16:33Z</time>
      </trkpt>
      <trkpt lat="47.2672" lon="-1.53915">
        <ele>7.1</ele>
        <time>2017-01-17T08:16:41Z</time>
      </trkpt>
      <trkpt lat="47.26703" lon="-1.5392">
        <ele>7.31</ele>
        <time>2017-01-17T08:16:52Z</time>
      </trkpt>
      <trkpt lat="47.26684" lon="-1.53916">
        <ele>7.72</ele>
        <time>2017-01-17T08:17:10Z</time>
      </trkpt>
      <trkpt lat="47.26665" lon="-1.53918">
        <ele>8.3</ele>
        <time>2017-01-17T08:17:23Z</time>
      </trkpt>
      <trkpt lat="47.26647" lon="-1.53917">
        <ele>9.38</ele>
        <time>2017-01-17T08:17:35Z</time>
      </trkpt>
      <trkpt lat="47.26629" lon="-1.53919">
        <ele>10.74</ele>
        <time>2017-01-17T08:17:55Z</time>
      </trkpt>
      <trkpt lat="47.2661" lon="-1.53917">
        <ele>12.03</ele>
        <time>2017-01-17T08:18:22Z</time>
      </trkpt>
      <trkpt lat="47.26591" lon="-1.53924">
        <ele>12.53</ele>
        <time>2017-01-17T08:18:36Z</time>
      </trkpt>
      <trkpt lat="47.26582" lon="-1.53949">
        <ele>12.56</ele>
        <time>2017-01-17T08:19:06Z</time>
      </trkpt>
      <trkpt lat="47.26578" lon="-1.53979">
        <ele>12.16</ele>
        <time>2017-01-17T08:19:13Z</time>
      </trkpt>
      <trkpt lat="47.26567" lon="-1.54001">
        <ele>11.59</ele>
        <time>2017-01-17T08:19:23Z</time>
      </trkpt>
      <trkpt lat="47.26549" lon="-1.54002">
        <ele>11.12</ele>
        <time>2017-01-17T08:19:37Z</time>
      </trkpt>
      <trkpt lat="47.2653" lon="-1.53995">
        <ele>10.92</ele>
        <time>2017-01-17T08:19:53Z</time>
      </trkpt>
      <trkpt lat="47.26513" lon="-1.53981">
        <ele>11.24</ele>
        <time>2017-01-17T08:20:06Z</time>
      </trkpt>
      <trkpt lat="47.26496" lon="-1.53973">
        <ele>11.88</ele>
        <time>2017-01-17T08:20:23Z</time>
      </trkpt>
      <trkpt lat="47.2648" lon="-1.53988">
        <ele>12.26</ele>
        <time>2017-01-17T08:20:37Z</time>
      </trkpt>
      <trkpt lat="47.26462" lon="-1.53996">
        <ele>12.38</ele>
        <time>2017-01-17T08:20:49Z</time>
      </trkpt>
      <trkpt lat="47.26444" lon="-1.54">
        <ele>12.61</ele>
        <time>2017-01-17T08:21:02Z</time>
      </trkpt>
      <trkpt lat="47.26425" lon="-1.53999">
        <ele>12.71</ele>
        <time>2017-01-17T08:21:13Z</time>
      </trkpt>
      <trkpt lat="47.26407" lon="-1.53993">
        <ele>12.62</ele>
        <time>2017-01-17T08:21:30Z</time>
      </trkpt>
      <trkpt lat="47.26388" lon="-1.53987">
        <ele>12.21</ele>
        <time>2017-01-17T08:21:45Z</time>
      </trkpt>
      <trkpt lat="47.2637" lon="-1.53986">
        <ele>11.87</ele>
        <time>2017-01-17T08:21:57Z</time>
      </trkpt>
      <trkpt lat="47.26352" lon="-1.53982">
        <ele>11.32</ele>
        <time>2017-01-17T08:22:13Z</time>
      </trkpt>
      <trkpt lat="47.26333" lon="-1.53976">
        <ele>10.59</ele>
        <time>2017-01-17T08:22:26Z</time>
      </trkpt>
      <trkpt lat="47.26316" lon="-1.53964">
        <ele>9.94</ele>
        <time>2017-01-17T08:22:41Z</time>
      </trkpt>
      <trkpt lat="47.26301" lon="-1.53948">
        <ele>9.67</ele>
        <time>2017-01-17T08:22:58Z</time>
      </trkpt>
      <trkpt lat="47.26284" lon="-1.53936">
        <ele>9.51</ele>
        <time>2017-01-17T08:23:13Z</time>
      </trkpt>
      <trkpt lat="47.26266" lon="-1.53929">
        <ele>8.68</ele>
        <time>2017-01-17T08:23:27Z</time>
      </trkpt>
      <trkpt lat="47.26248" lon="-1.5392">
        <ele>7.3</ele>
        <time>2017-01-17T08:23:39Z</time>
      </trkpt>
      <trkpt lat="47.26233" lon="-1.53904">
        <ele>5.29</ele>
        <time>2017-01-17T08:23:53Z</time>
      </trkpt>
      <trkpt lat="47.26218" lon="-1.53889">
        <ele>3.46</ele>
        <time>2017-01-17T08:24:06Z</time>
      </trkpt>
      <trkpt lat="47.26202" lon="-1.53877">
        <ele>1.51</ele>
        <time>2017-01-17T08:24:20Z</time>
      </trkpt>
      <trkpt lat="47.26186" lon="-1.53858">
        <ele>0.78</ele>
        <time>2017-01-17T08:24:28Z</time>
      </trkpt>
      <trkpt lat="47.26168" lon="-1.53852">
        <ele>0.62</ele>
        <time>2017-01-17T08:24:43Z</time>
      </trkpt>
      <trkpt lat="47.26151" lon="-1.53842">
        <ele>0.93</ele>
        <time>2017-01-17T08:24:54Z</time>
      </trkpt>
      <trkpt lat="47.26134" lon="-1.5383">
        <ele>1.51</ele>
        <time>2017-01-17T08:25:05Z</time>
      </trkpt>
      <trkpt lat="47.26115" lon="-1.53834">
        <ele>2.12</ele>
        <time>2017-01-17T08:25:19Z</time>
      </trkpt>
      <trkpt lat="47.26096" lon="-1.53839">
        <ele>2.9</ele>
        <time>2017-01-17T08:25:36Z</time>
      </trkpt>
      <trkpt lat="47.26077" lon="-1.53846">
        <ele>3.66</ele>
        <time>2017-01-17T08:25:49Z</time>
      </trkpt>
      <trkpt lat="47.26059" lon="-1.53842">
        <ele>4.3</ele>
        <time>2017-01-17T08:26:13Z</time>
      </trkpt>
      <trkpt lat="47.2604" lon="-1.53835">
        <ele>4.24</ele>
        <time>2017-01-17T08:26:28Z</time>
      </trkpt>
      <trkpt lat="47.26022" lon="-1.53837">
        <ele>4.63</ele>
        <time>2017-01-17T08:26:51Z</time>
      </trkpt>
      <trkpt lat="47.26005" lon="-1.53845">
        <ele>4.77</ele>
        <time>2017-01-17T08:27:05Z</time>
      </trkpt>
      <trkpt lat="47.25986" lon="-1.53845">
        <ele>4.94</ele>
        <time>2017-01-17T08:27:26Z</time>
      </trkpt>
      <trkpt lat="47.25967" lon="-1.53851">
        <ele>5.08</ele>
        <time>2017-01-17T08:27:47Z</time>
      </trkpt>
      <trkpt lat="47.25951" lon="-1.53865">
        <ele>5</ele>
        <time>2017-01-17T08:28:02Z</time>
      </trkpt>
      <trkpt lat="47.25937" lon="-1.53882">
        <ele>4.82</ele>
        <time>2017-01-17T08:28:18Z</time>
      </trkpt>
      <trkpt lat="47.25921" lon="-1.53896">
        <ele>4.44</ele>
        <time>2017-01-17T08:28:45Z</time>
      </trkpt>
      <trkpt lat="47.25903" lon="-1.53902">
        <ele>4.05</ele>
        <time>2017-01-17T08:30:58Z</time>
      </trkpt>
      <trkpt lat="47.25887" lon="-1.53915">
        <ele>4.27</ele>
        <time>2017-01-17T08:31:12Z</time>
      </trkpt>
      <trkpt lat="47.25869" lon="-1.53923">
        <ele>4.72</ele>
        <time>2017-01-17T08:31:27Z</time>
      </trkpt>
      <trkpt lat="47.25852" lon="-1.53939">
        <ele>5.67</ele>
        <time>2017-01-17T08:31:40Z</time>
      </trkpt>
      <trkpt lat="47.25834" lon="-1.53945">
        <ele>6.5</ele>
        <time>2017-01-17T08:31:54Z</time>
      </trkpt>
      <trkpt lat="47.25816" lon="-1.53946">
        <ele>7.08</ele>
        <time>2017-01-17T08:32:09Z</time>
      </trkpt>
      <trkpt lat="47.25799" lon="-1.53959">
        <ele>7.38</ele>
        <time>2017-01-17T08:32:23Z</time>
      </trkpt>
      <trkpt lat="47.2578" lon="-1.53964">
        <ele>7.56</ele>
        <time>2017-01-17T08:32:35Z</time>
      </trkpt>
      <trkpt lat="47.25762" lon="-1.53965">
        <ele>7.56</ele>
        <time>2017-01-17T08:32:52Z</time>
      </trkpt>
      <trkpt lat="47.25746" lon="-1.53952">
        <ele>7.35</ele>
        <time>2017-01-17T08:33:07Z</time>
      </trkpt>
      <trkpt lat="47.25731" lon="-1.53935">
        <ele>7.15</ele>
        <time>2017-01-17T08:33:18Z</time>
      </trkpt>
      <trkpt lat="47.25715" lon="-1.53916">
        <ele>6.93</ele>
        <time>2017-01-17T08:33:31Z</time>
      </trkpt>
      <trkpt lat="47.25697" lon="-1.53915">
        <ele>6.84</ele>
        <time>2017-01-17T08:33:48Z</time>
      </trkpt>
      <trkpt lat="47.25678" lon="-1.53915">
        <ele>6.85</ele>
        <time>2017-01-17T08:34:03Z</time>
      </trkpt>
      <trkpt lat="47.25663" lon="-1.5393">
        <ele>6.82</ele>
        <time>2017-01-17T08:34:20Z</time>
      </trkpt>
      <trkpt lat="47.25644" lon="-1.53927">
        <ele>6.6</ele>
        <time>2017-01-17T08:34:33Z</time>
      </trkpt>
      <trkpt lat="47.25626" lon="-1.53919">
        <ele>6.56</ele>
        <time>2017-01-17T08:34:40Z</time>
      </trkpt>
      <trkpt lat="47.25632" lon="-1.53947">
        <ele>6.57</ele>
        <time>2017-01-17T08:34:45Z</time>
      </trkpt>
      <trkpt lat="47.25619" lon="-1.53969">
        <ele>6.66</ele>
        <time>2017-01-17T08:34:54Z</time>
      </trkpt>
      <trkpt lat="47.25612" lon="-1.53994">
        <ele>6.87</ele>
        <time>2017-01-17T08:35:04Z</time>
      </trkpt>
      <trkpt lat="47.25594" lon="-1.53993">
        <ele>7.1</ele>
        <time>2017-01-17T08:35:13Z</time>
      </trkpt>
      <trkpt lat="47.25578" lon="-1.54004">
        <ele>7.17</ele>
        <time>2017-01-17T08:35:24Z</time>
      </trkpt>
      <trkpt lat="47.25598" lon="-1.5401">
        <ele>8.28</ele>
        <time>2017-01-17T08:36:16Z</time>
      </trkpt>
      <trkpt lat="47.25616" lon="-1.54004">
        <ele>8.59</ele>
        <time>2017-01-17T08:36:25Z</time>
      </trkpt>
      <trkpt lat="47.25628" lon="-1.54027">
        <ele>9.24</ele>
        <time>2017-01-17T08:36:42Z</time>
      </trkpt>
      <trkpt lat="47.25634" lon="-1.54052">
        <ele>10.58</ele>
        <time>2017-01-17T08:36:59Z</time>
      </trkpt>
      <trkpt lat="47.25619" lon="-1.54039">
        <ele>11.18</ele>
        <time>2017-01-17T08:37:25Z</time>
      </trkpt>
      <trkpt lat="47.2561" lon="-1.54015">
        <ele>11.31</ele>
        <time>2017-01-17T08:37:42Z</time>
      </trkpt>
      <trkpt lat="47.25602" lon="-1.53991">
        <ele>11.46</ele>
        <time>2017-01-17T08:37:56Z</time>
      </trkpt>
      <trkpt lat="47.25595" lon="-1.53965">
        <ele>11.61</ele>
        <time>2017-01-17T08:38:13Z</time>
      </trkpt>
      <trkpt lat="47.25589" lon="-1.5394">
        <ele>11.74</ele>
        <time>2017-01-17T08:38:24Z</time>
      </trkpt>
      <trkpt lat="47.25582" lon="-1.53914">
        <ele>11.81</ele>
        <time>2017-01-17T08:38:38Z</time>
      </trkpt>
      <trkpt lat="47.25574" lon="-1.5389">
        <ele>11.78</ele>
        <time>2017-01-17T08:38:53Z</time>
      </trkpt>
      <trkpt lat="47.25567" lon="-1.53864">
        <ele>11.78</ele>
        <time>2017-01-17T08:39:05Z</time>
      </trkpt>
      <trkpt lat="47.25561" lon="-1.53837">
        <ele>11.85</ele>
        <time>2017-01-17T08:39:19Z</time>
      </trkpt>
      <trkpt lat="47.25554" lon="-1.53813">
        <ele>11.86</ele>
        <time>2017-01-17T08:39:32Z</time>
      </trkpt>
      <trkpt lat="47.25547" lon="-1.53785">
        <ele>11.82</ele>
        <time>2017-01-17T08:39:48Z</time>
      </trkpt>
      <trkpt lat="47.2554" lon="-1.53759">
        <ele>11.81</ele>
        <time>2017-01-17T08:39:59Z</time>
      </trkpt>
      <trkpt lat="47.25529" lon="-1.53735">
        <ele>12.12</ele>
        <time>2017-01-17T08:40:10Z</time>
      </trkpt>
      <trkpt lat="47.25522" lon="-1.53709">
        <ele>13.39</ele>
        <time>2017-01-17T08:40:25Z</time>
      </trkpt>
      <trkpt lat="47.25519" lon="-1.53683">
        <ele>14.55</ele>
        <time>2017-01-17T08:40:40Z</time>
      </trkpt>
      <trkpt lat="47.25523" lon="-1.53655">
        <ele>15.34</ele>
        <time>2017-01-17T08:40:55Z</time>
      </trkpt>
      <trkpt lat="47.25537" lon="-1.53672">
        <ele>17.31</ele>
        <time>2017-01-17T08:41:24Z</time>
      </trkpt>
      <trkpt lat="47.25545" lon="-1.53699">
        <ele>18.43</ele>
        <time>2017-01-17T08:41:39Z</time>
      </trkpt>
      <trkpt lat="47.25553" lon="-1.53725">
        <ele>19.06</ele>
        <time>2017-01-17T08:41:51Z</time>
      </trkpt>
      <trkpt lat="47.25556" lon="-1.53754">
        <ele>19.53</ele>
        <time>2017-01-17T08:42:05Z</time>
      </trkpt>
      <trkpt lat="47.25561" lon="-1.5378">
        <ele>19.7</ele>
        <time>2017-01-17T08:42:17Z</time>
      </trkpt>
      <trkpt lat="47.25556" lon="-1.53812">
        <ele>19.75</ele>
        <time>2017-01-17T08:42:39Z</time>
      </trkpt>
      <trkpt lat="47.25539" lon="-1.53826">
        <ele>19.5</ele>
        <time>2017-01-17T08:42:48Z</time>
      </trkpt>
      <trkpt lat="47.25521" lon="-1.53834">
        <ele>18.49</ele>
        <time>2017-01-17T08:43:00Z</time>
      </trkpt>
      <trkpt lat="47.25502" lon="-1.53833">
        <ele>16.47</ele>
        <time>2017-01-17T08:43:14Z</time>
      </trkpt>
      <trkpt lat="47.25484" lon="-1.53835">
        <ele>15.12</ele>
        <time>2017-01-17T08:43:23Z</time>
      </trkpt>
      <trkpt lat="47.25465" lon="-1.5383">
        <ele>12.87</ele>
        <time>2017-01-17T08:43:40Z</time>
      </trkpt>
      <trkpt lat="47.25445" lon="-1.53826">
        <ele>11.19</ele>
        <time>2017-01-17T08:43:54Z</time>
      </trkpt>
      <trkpt lat="47.25426" lon="-1.53824">
        <ele>10.19</ele>
        <time>2017-01-17T08:44:04Z</time>
      </trkpt>
      <trkpt lat="47.25409" lon="-1.53816">
        <ele>8.93</ele>
        <time>2017-01-17T08:44:18Z</time>
      </trkpt>
      <trkpt lat="47.25391" lon="-1.5382">
        <ele>7.17</ele>
        <time>2017-01-17T08:44:33Z</time>
      </trkpt>
      <trkpt lat="47.25372" lon="-1.53817">
        <ele>5.42</ele>
        <time>2017-01-17T08:44:46Z</time>
      </trkpt>
      <trkpt lat="47.25354" lon="-1.5381">
        <ele>3.86</ele>
        <time>2017-01-17T08:44:56Z</time>
      </trkpt>
      <trkpt lat="47.25335" lon="-1.53812">
        <ele>1.97</ele>
        <time>2017-01-17T08:45:09Z</time>
      </trkpt>
      <trkpt lat="47.25315" lon="-1.5381">
        <ele>0.17</ele>
        <time>2017-01-17T08:45:25Z</time>
      </trkpt>
      <trkpt lat="47.25297" lon="-1.53814">
        <ele>-0.71</ele>
        <time>2017-01-17T08:45:38Z</time>
      </trkpt>
      <trkpt lat="47.25277" lon="-1.53817">
        <ele>-1.34</ele>
        <time>2017-01-17T08:45:53Z</time>
      </trkpt>
      <trkpt lat="47.25259" lon="-1.53822">
        <ele>-2.19</ele>
        <time>2017-01-17T08:46:12Z</time>
      </trkpt>
      <trkpt lat="47.25243" lon="-1.53841">
        <ele>-3.5</ele>
        <time>2017-01-17T08:46:30Z</time>
      </trkpt>
      <trkpt lat="47.25226" lon="-1.53849">
        <ele>-4.4</ele>
        <time>2017-01-17T08:46:43Z</time>
      </trkpt>
      <trkpt lat="47.25207" lon="-1.53861">
        <ele>-4.98</ele>
        <time>2017-01-17T08:46:52Z</time>
      </trkpt>
      <trkpt lat="47.25188" lon="-1.53864">
        <ele>-5.52</ele>
        <time>2017-01-17T08:47:06Z</time>
      </trkpt>
      <trkpt lat="47.2517" lon="-1.5387">
        <ele>-5.81</ele>
        <time>2017-01-17T08:47:20Z</time>
      </trkpt>
      <trkpt lat="47.25152" lon="-1.53878">
        <ele>-6</ele>
        <time>2017-01-17T08:47:31Z</time>
      </trkpt>
      <trkpt lat="47.25134" lon="-1.53884">
        <ele>-6.21</ele>
        <time>2017-01-17T08:47:41Z</time>
      </trkpt>
      <trkpt lat="47.25116" lon="-1.5389">
        <ele>-6.42</ele>
        <time>2017-01-17T08:47:53Z</time>
      </trkpt>
      <trkpt lat="47.25097" lon="-1.53885">
        <ele>-6.86</ele>
        <time>2017-01-17T08:48:06Z</time>
      </trkpt>
      <trkpt lat="47.2508" lon="-1.53876">
        <ele>-7.31</ele>
        <time>2017-01-17T08:48:21Z</time>
      </trkpt>
      <trkpt lat="47.25065" lon="-1.53859">
        <ele>-7.51</ele>
        <time>2017-01-17T08:48:35Z</time>
      </trkpt>
      <trkpt lat="47.25052" lon="-1.5384">
        <ele>-6.99</ele>
        <time>2017-01-17T08:48:48Z</time>
      </trkpt>
      <trkpt lat="47.25035" lon="-1.53827">
        <ele>-6.09</ele>
        <time>2017-01-17T08:49:02Z</time>
      </trkpt>
      <trkpt lat="47.25023" lon="-1.53848">
        <ele>-4.65</ele>
        <time>2017-01-17T08:49:29Z</time>
      </trkpt>
      <trkpt lat="47.25033" lon="-1.53873">
        <ele>-4.38</ele>
        <time>2017-01-17T08:49:40Z</time>
      </trkpt>
      <trkpt lat="47.25021" lon="-1.53895">
        <ele>-4.12</ele>
        <time>2017-01-17T08:50:01Z</time>
      </trkpt>
      <trkpt lat="47.25011" lon="-1.53918">
        <ele>-4.31</ele>
        <time>2017-01-17T08:50:15Z</time>
      </trkpt>
      <trkpt lat="47.24996" lon="-1.53941">
        <ele>-4.45</ele>
        <time>2017-01-17T08:50:31Z</time>
      </trkpt>
      <trkpt lat="47.24985" lon="-1.53963">
        <ele>-4.67</ele>
        <time>2017-01-17T08:50:44Z</time>
      </trkpt>
      <trkpt lat="47.24969" lon="-1.5398">
        <ele>-4.61</ele>
        <time>2017-01-17T08:50:54Z</time>
      </trkpt>
      <trkpt lat="47.24951" lon="-1.53977">
        <ele>-4.44</ele>
        <time>2017-01-17T08:51:10Z</time>
      </trkpt>
      <trkpt lat="47.24938" lon="-1.53958">
        <ele>-4.52</ele>
        <time>2017-01-17T08:51:24Z</time>
      </trkpt>
      <trkpt lat="47.24923" lon="-1.53943">
        <ele>-4.7</ele>
        <time>2017-01-17T08:51:36Z</time>
      </trkpt>
      <trkpt lat="47.24907" lon="-1.53927">
        <ele>-4.81</ele>
        <time>2017-01-17T08:51:47Z</time>
      </trkpt>
      <trkpt lat="47.24888" lon="-1.53923">
        <ele>-4.94</ele>
        <time>2017-01-17T08:52:02Z</time>
      </trkpt>
      <trkpt lat="47.24879" lon="-1.53945">
        <ele>-4.47</ele>
        <time>2017-01-17T08:52:24Z</time>
      </trkpt>
      <trkpt lat="47.24877" lon="-1.53972">
        <ele>-3.72</ele>
        <time>2017-01-17T08:52:38Z</time>
      </trkpt>
      <trkpt lat="47.24864" lon="-1.53993">
        <ele>-2.63</ele>
        <time>2017-01-17T08:52:54Z</time>
      </trkpt>
      <trkpt lat="47.24846" lon="-1.54001">
        <ele>-1.86</ele>
        <time>2017-01-17T08:53:09Z</time>
      </trkpt>
      <trkpt lat="47.2483" lon="-1.54016">
        <ele>-1.36</ele>
        <time>2017-01-17T08:53:21Z</time>
      </trkpt>
      <trkpt lat="47.24826" lon="-1.54043">
        <ele>-0.93</ele>
        <time>2017-01-17T08:53:39Z</time>
      </trkpt>
      <trkpt lat="47.2483" lon="-1.54069">
        <ele>-1.15</ele>
        <time>2017-01-17T08:53:52Z</time>
      </trkpt>
      <trkpt lat="47.24814" lon="-1.54082">
        <ele>-1.7</ele>
        <time>2017-01-17T08:54:03Z</time>
      </trkpt>
      <trkpt lat="47.24802" lon="-1.54101">
        <ele>-2.52</ele>
        <time>2017-01-17T08:54:16Z</time>
      </trkpt>
      <trkpt lat="47.24795" lon="-1.54126">
        <ele>-3.35</ele>
        <time>2017-01-17T08:54:27Z</time>
      </trkpt>
      <trkpt lat="47.24781" lon="-1.54143">
        <ele>-4.03</ele>
        <time>2017-01-17T08:54:42Z</time>
      </trkpt>
      <trkpt lat="47.24769" lon="-1.54165">
        <ele>-4.65</ele>
        <time>2017-01-17T08:54:55Z</time>
      </trkpt>
      <trkpt lat="47.24753" lon="-1.5418">
        <ele>-5.14</ele>
        <time>2017-01-17T08:55:09Z</time>
      </trkpt>
      <trkpt lat="47.24739" lon="-1.54198">
        <ele>-5.53</ele>
        <time>2017-01-17T08:55:17Z</time>
      </trkpt>
      <trkpt lat="47.24723" lon="-1.5421">
        <ele>-6.16</ele>
        <time>2017-01-17T08:55:28Z</time>
      </trkpt>
      <trkpt lat="47.24705" lon="-1.54216">
        <ele>-7.03</ele>
        <time>2017-01-17T08:55:42Z</time>
      </trkpt>
      <trkpt lat="47.24689" lon="-1.54231">
        <ele>-7.79</ele>
        <time>2017-01-17T08:55:54Z</time>
      </trkpt>
      <trkpt lat="47.24672" lon="-1.54239">
        <ele>-8.5</ele>
        <time>2017-01-17T08:56:04Z</time>
      </trkpt>
      <trkpt lat="47.24654" lon="-1.54248">
        <ele>-9.39</ele>
        <time>2017-01-17T08:56:18Z</time>
      </trkpt>
      <trkpt lat="47.24637" lon="-1.54261">
        <ele>-10.24</ele>
        <time>2017-01-17T08:56:33Z</time>
      </trkpt>
      <trkpt lat="47.24622" lon="-1.54277">
        <ele>-10.99</ele>
        <time>2017-01-17T08:56:47Z</time>
      </trkpt>
      <trkpt lat="47.24608" lon="-1.54295">
        <ele>-11.74</ele>
        <time>2017-01-17T08:57:04Z</time>
      </trkpt>
      <trkpt lat="47.24592" lon="-1.54309">
        <ele>-11.94</ele>
        <time>2017-01-17T08:57:17Z</time>
      </trkpt>
      <trkpt lat="47.24574" lon="-1.54319">
        <ele>-11.81</ele>
        <time>2017-01-17T08:57:26Z</time>
      </trkpt>
      <trkpt lat="47.24572" lon="-1.54292">
        <ele>-10.81</ele>
        <time>2017-01-17T08:57:42Z</time>
      </trkpt>
      <trkpt lat="47.24567" lon="-1.54263">
        <ele>-9.19</ele>
        <time>2017-01-17T08:58:00Z</time>
      </trkpt>
      <trkpt lat="47.24558" lon="-1.5424">
        <ele>-7.37</ele>
        <time>2017-01-17T08:58:17Z</time>
      </trkpt>
      <trkpt lat="47.24548" lon="-1.54217">
        <ele>-5.28</ele>
        <time>2017-01-17T08:58:33Z</time>
      </trkpt>
      <trkpt lat="47.2454" lon="-1.54193">
        <ele>-2.94</ele>
        <time>2017-01-17T08:58:52Z</time>
      </trkpt>
      <trkpt lat="47.24533" lon="-1.54168">
        <ele>-1.59</ele>
        <time>2017-01-17T08:59:05Z</time>
      </trkpt>
      <trkpt lat="47.24515" lon="-1.54168">
        <ele>-0.36</ele>
        <time>2017-01-17T08:59:19Z</time>
      </trkpt>
      <trkpt lat="47.24497" lon="-1.54171">
        <ele>1.42</ele>
        <time>2017-01-17T09:00:08Z</time>
      </trkpt>
      <trkpt lat="47.24478" lon="-1.54178">
        <ele>4.77</ele>
        <time>2017-01-17T09:01:26Z</time>
      </trkpt>
      <trkpt lat="47.2446" lon="-1.54177">
        <ele>5.6</ele>
        <time>2017-01-17T09:01:39Z</time>
      </trkpt>
      <trkpt lat="47.24442" lon="-1.54186">
        <ele>6.09</ele>
        <time>2017-01-17T09:01:53Z</time>
      </trkpt>
      <trkpt lat="47.24424" lon="-1.54193">
        <ele>6.32</ele>
        <time>2017-01-17T09:02:04Z</time>
      </trkpt>
      <trkpt lat="47.24422" lon="-1.5422">
        <ele>6.88</ele>
        <time>2017-01-17T09:02:22Z</time>
      </trkpt>
      <trkpt lat="47.24428" lon="-1.54246">
        <ele>7.46</ele>
        <time>2017-01-17T09:02:35Z</time>
      </trkpt>
      <trkpt lat="47.24437" lon="-1.5427">
        <ele>7.81</ele>
        <time>2017-01-17T09:02:46Z</time>
      </trkpt>
      <trkpt lat="47.24431" lon="-1.54296">
        <ele>8.02</ele>
        <time>2017-01-17T09:03:10Z</time>
      </trkpt>
      <trkpt lat="47.24416" lon="-1.54311">
        <ele>7.47</ele>
        <time>2017-01-17T09:03:22Z</time>
      </trkpt>
      <trkpt lat="47.24399" lon="-1.54322">
        <ele>7.2</ele>
        <time>2017-01-17T09:03:31Z</time>
      </trkpt>
      <trkpt lat="47.24381" lon="-1.54321">
        <ele>6.89</ele>
        <time>2017-01-17T09:03:39Z</time>
      </trkpt>
      <trkpt lat="47.24364" lon="-1.54334">
        <ele>6.22</ele>
        <time>2017-01-17T09:03:53Z</time>
      </trkpt>
      <trkpt lat="47.24346" lon="-1.54337">
        <ele>4.77</ele>
        <time>2017-01-17T09:04:14Z</time>
      </trkpt>
      <trkpt lat="47.24328" lon="-1.54325">
        <ele>4.06</ele>
        <time>2017-01-17T09:04:21Z</time>
      </trkpt>
      <trkpt lat="47.2431" lon="-1.5432">
        <ele>3.04</ele>
        <time>2017-01-17T09:04:31Z</time>
      </trkpt>
      <trkpt lat="47.24292" lon="-1.54318">
        <ele>1.36</ele>
        <time>2017-01-17T09:04:48Z</time>
      </trkpt>
      <trkpt lat="47.24274" lon="-1.54309">
        <ele>0.32</ele>
        <time>2017-01-17T09:05:02Z</time>
      </trkpt>
      <trkpt lat="47.24259" lon="-1.54325">
        <ele>-0.5</ele>
        <time>2017-01-17T09:05:17Z</time>
      </trkpt>
      <trkpt lat="47.24246" lon="-1.54346">
        <ele>-0.98</ele>
        <time>2017-01-17T09:05:30Z</time>
      </trkpt>
      <trkpt lat="47.24243" lon="-1.54374">
        <ele>-1.69</ele>
        <time>2017-01-17T09:05:41Z</time>
      </trkpt>
      <trkpt lat="47.24236" lon="-1.544">
        <ele>-3.19</ele>
        <time>2017-01-17T09:05:54Z</time>
      </trkpt>
      <trkpt lat="47.24231" lon="-1.54426">
        <ele>-5.08</ele>
        <time>2017-01-17T09:06:05Z</time>
      </trkpt>
      <trkpt lat="47.2422" lon="-1.5445">
        <ele>-7.64</ele>
        <time>2017-01-17T09:06:20Z</time>
      </trkpt>
      <trkpt lat="47.24201" lon="-1.54449">
        <ele>-9.25</ele>
        <time>2017-01-17T09:06:33Z</time>
      </trkpt>
      <trkpt lat="47.24203" lon="-1.54477">
        <ele>-11.88</ele>
        <time>2017-01-17T09:06:56Z</time>
      </trkpt>
      <trkpt lat="47.24206" lon="-1.54507">
        <ele>-13.32</ele>
        <time>2017-01-17T09:07:10Z</time>
      </trkpt>
      <trkpt lat="47.24212" lon="-1.54534">
        <ele>-15.03</ele>
        <time>2017-01-17T09:07:24Z</time>
      </trkpt>
      <trkpt lat="47.24212" lon="-1.54561">
        <ele>-16.46</ele>
        <time>2017-01-17T09:07:34Z</time>
      </trkpt>
      <trkpt lat="47.24204" lon="-1.5459">
        <ele>-18.19</ele>
        <time>2017-01-17T09:07:47Z</time>
      </trkpt>
      <trkpt lat="47.24184" lon="-1.54592">
        <ele>-18.65</ele>
        <time>2017-01-17T09:07:58Z</time>
      </trkpt>
      <trkpt lat="47.24167" lon="-1.54602">
        <ele>-18.7</ele>
        <time>2017-01-17T09:08:09Z</time>
      </trkpt>
      <trkpt lat="47.24151" lon="-1.54618">
        <ele>-18.68</ele>
        <time>2017-01-17T09:08:20Z</time>
      </trkpt>
      <trkpt lat="47.24134" lon="-1.54629">
        <ele>-18.36</ele>
        <time>2017-01-17T09:08:34Z</time>
      </trkpt>
      <trkpt lat="47.24116" lon="-1.54638">
        <ele>-18.15</ele>
        <time>2017-01-17T09:08:46Z</time>
      </trkpt>
      <trkpt lat="47.24098" lon="-1.54642">
        <ele>-18.11</ele>
        <time>2017-01-17T09:09:02Z</time>
      </trkpt>
      <trkpt lat="47.24079" lon="-1.54649">
        <ele>-18.75</ele>
        <time>2017-01-17T09:09:16Z</time>
      </trkpt>
      <trkpt lat="47.2406" lon="-1.54661">
        <ele>-19.14</ele>
        <time>2017-01-17T09:09:25Z</time>
      </trkpt>
      <trkpt lat="47.24041" lon="-1.54665">
        <ele>-19.41</ele>
        <time>2017-01-17T09:09:37Z</time>
      </trkpt>
      <trkpt lat="47.24032" lon="-1.5469">
        <ele>-19.81</ele>
        <time>2017-01-17T09:09:57Z</time>
      </trkpt>
      <trkpt lat="47.24018" lon="-1.5471">
        <ele>-20.39</ele>
        <time>2017-01-17T09:10:16Z</time>
      </trkpt>
      <trkpt lat="47.24002" lon="-1.54724">
        <ele>-21.42</ele>
        <time>2017-01-17T09:10:34Z</time>
      </trkpt>
      <trkpt lat="47.23985" lon="-1.54735">
        <ele>-22.6</ele>
        <time>2017-01-17T09:10:51Z</time>
      </trkpt>
      <trkpt lat="47.2397" lon="-1.54754">
        <ele>-23.8</ele>
        <time>2017-01-17T09:11:08Z</time>
      </trkpt>
      <trkpt lat="47.23956" lon="-1.54772">
        <ele>-24.52</ele>
        <time>2017-01-17T09:11:23Z</time>
      </trkpt>
      <trkpt lat="47.23942" lon="-1.54789">
        <ele>-24.68</ele>
        <time>2017-01-17T09:11:45Z</time>
      </trkpt>
      <trkpt lat="47.23925" lon="-1.54803">
        <ele>-24.18</ele>
        <time>2017-01-17T09:12:08Z</time>
      </trkpt>
      <trkpt lat="47.23909" lon="-1.54816">
        <ele>-24.35</ele>
        <time>2017-01-17T09:12:30Z</time>
      </trkpt>
      <trkpt lat="47.23889" lon="-1.54814">
        <ele>-23.69</ele>
        <time>2017-01-17T09:12:49Z</time>
      </trkpt>
      <trkpt lat="47.23872" lon="-1.54824">
        <ele>-23.54</ele>
        <time>2017-01-17T09:13:06Z</time>
      </trkpt>
      <trkpt lat="47.23856" lon="-1.54839">
        <ele>-23.41</ele>
        <time>2017-01-17T09:13:23Z</time>
      </trkpt>
      <trkpt lat="47.23843" lon="-1.5486">
        <ele>-22.94</ele>
        <time>2017-01-17T09:13:42Z</time>
      </trkpt>
      <trkpt lat="47.23828" lon="-1.54878">
        <ele>-22.12</ele>
        <time>2017-01-17T09:13:59Z</time>
      </trkpt>
      <trkpt lat="47.2381" lon="-1.5489">
        <ele>-18.8</ele>
        <time>2017-01-17T09:14:21Z</time>
      </trkpt>
      <trkpt lat="47.23792" lon="-1.54896">
        <ele>-16.7</ele>
        <time>2017-01-17T09:14:39Z</time>
      </trkpt>
      <trkpt lat="47.23775" lon="-1.54906">
        <ele>-15.24</ele>
        <time>2017-01-17T09:14:55Z</time>
      </trkpt>
      <trkpt lat="47.23761" lon="-1.54926">
        <ele>-14.32</ele>
        <time>2017-01-17T09:15:11Z</time>
      </trkpt>
      <trkpt lat="47.23742" lon="-1.5493">
        <ele>-13.1</ele>
        <time>2017-01-17T09:15:29Z</time>
      </trkpt>
      <trkpt lat="47.23732" lon="-1.54953">
        <ele>-12.46</ele>
        <time>2017-01-17T09:15:39Z</time>
      </trkpt>
      <trkpt lat="47.23717" lon="-1.54938">
        <ele>-11.59</ele>
        <time>2017-01-17T09:15:56Z</time>
      </trkpt>
      <trkpt lat="47.23701" lon="-1.54925">
        <ele>-11.37</ele>
        <time>2017-01-17T09:16:05Z</time>
      </trkpt>
      <trkpt lat="47.23684" lon="-1.54917">
        <ele>-10.52</ele>
        <time>2017-01-17T09:16:20Z</time>
      </trkpt>
      <trkpt lat="47.23668" lon="-1.54901">
        <ele>-10.12</ele>
        <time>2017-01-17T09:16:25Z</time>
      </trkpt>
      <trkpt lat="47.23655" lon="-1.54883">
        <ele>-9.31</ele>
        <time>2017-01-17T09:16:37Z</time>
      </trkpt>
      <trkpt lat="47.23641" lon="-1.54864">
        <ele>-8.15</ele>
        <time>2017-01-17T09:16:58Z</time>
      </trkpt>
      <trkpt lat="47.23627" lon="-1.54845">
        <ele>-7.3</ele>
        <time>2017-01-17T09:17:13Z</time>
      </trkpt>
      <trkpt lat="47.23611" lon="-1.54833">
        <ele>-6.45</ele>
        <time>2017-01-17T09:17:33Z</time>
      </trkpt>
      <trkpt lat="47.23593" lon="-1.54828">
        <ele>-6.08</ele>
        <time>2017-01-17T09:17:46Z</time>
      </trkpt>
      <trkpt lat="47.23573" lon="-1.54834">
        <ele>-5.32</ele>
        <time>2017-01-17T09:18:03Z</time>
      </trkpt>
      <trkpt lat="47.23566" lon="-1.54807">
        <ele>-4.86</ele>
        <time>2017-01-17T09:18:22Z</time>
      </trkpt>
      <trkpt lat="47.23557" lon="-1.54834">
        <ele>-2.29</ele>
        <time>2017-01-17T09:19:07Z</time>
      </trkpt>
      <trkpt lat="47.23554" lon="-1.5486">
        <ele>-1.76</ele>
        <time>2017-01-17T09:19:19Z</time>
      </trkpt>
      <trkpt lat="47.2355" lon="-1.54887">
        <ele>-1.41</ele>
        <time>2017-01-17T09:19:32Z</time>
      </trkpt>
      <trkpt lat="47.23546" lon="-1.54914">
        <ele>-1</ele>
        <time>2017-01-17T09:19:46Z</time>
      </trkpt>
      <trkpt lat="47.23543" lon="-1.54941">
        <ele>0.3</ele>
        <time>2017-01-17T09:20:04Z</time>
      </trkpt>
      <trkpt lat="47.23548" lon="-1.54967">
        <ele>2.22</ele>
        <time>2017-01-17T09:20:26Z</time>
      </trkpt>
      <trkpt lat="47.23568" lon="-1.54965">
        <ele>3.7</ele>
        <time>2017-01-17T09:20:47Z</time>
      </trkpt>
      <trkpt lat="47.23585" lon="-1.54974">
        <ele>4.18</ele>
        <time>2017-01-17T09:20:57Z</time>
      </trkpt>
      <trkpt lat="47.23594" lon="-1.54999">
        <ele>4.62</ele>
        <time>2017-01-17T09:21:12Z</time>
      </trkpt>
      <trkpt lat="47.23608" lon="-1.55018">
        <ele>4.75</ele>
        <time>2017-01-17T09:21:27Z</time>
      </trkpt>
      <trkpt lat="47.23622" lon="-1.55036">
        <ele>4.38</ele>
        <time>2017-01-17T09:21:41Z</time>
      </trkpt>
      <trkpt lat="47.23637" lon="-1.55052">
        <ele>3.95</ele>
        <time>2017-01-17T09:21:56Z</time>
      </trkpt>
      <trkpt lat="47.23656" lon="-1.55052">
        <ele>3.28</ele>
        <time>2017-01-17T09:22:20Z</time>
      </trkpt>
      <trkpt lat="47.23666" lon="-1.5503">
        <ele>1.18</ele>
        <time>2017-01-17T09:24:43Z</time>
      </trkpt>
      <trkpt lat="47.23671" lon="-1.55057">
        <ele>-0.84</ele>
        <time>2017-01-17T09:27:28Z</time>
      </trkpt>
      <trkpt lat="47.23691" lon="-1.5505">
        <ele>-1.43</ele>
        <time>2017-01-17T09:27:40Z</time>
      </trkpt>
      <trkpt lat="47.23708" lon="-1.55059">
        <ele>-2.25</ele>
        <time>2017-01-17T09:27:52Z</time>
      </trkpt>
      <trkpt lat="47.23727" lon="-1.55061">
        <ele>-3.62</ele>
        <time>2017-01-17T09:28:08Z</time>
      </trkpt>
      <trkpt lat="47.23748" lon="-1.55056">
        <ele>-5.31</ele>
        <time>2017-01-17T09:28:29Z</time>
      </trkpt>
      <trkpt lat="47.23767" lon="-1.5506">
        <ele>-5.99</ele>
        <time>2017-01-17T09:28:40Z</time>
      </trkpt>
      <trkpt lat="47.23785" lon="-1.55065">
        <ele>-6.71</ele>
        <time>2017-01-17T09:28:55Z</time>
      </trkpt>
      <trkpt lat="47.23803" lon="-1.55067">
        <ele>-6.89</ele>
        <time>2017-01-17T09:29:07Z</time>
      </trkpt>
      <trkpt lat="47.23822" lon="-1.55071">
        <ele>-7.09</ele>
        <time>2017-01-17T09:29:25Z</time>
      </trkpt>
      <trkpt lat="47.23841" lon="-1.55067">
        <ele>-7.66</ele>
        <time>2017-01-17T09:29:42Z</time>
      </trkpt>
      <trkpt lat="47.23859" lon="-1.55058">
        <ele>-7.99</ele>
        <time>2017-01-17T09:29:51Z</time>
      </trkpt>
      <trkpt lat="47.23873" lon="-1.55041">
        <ele>-8.26</ele>
        <time>2017-01-17T09:30:08Z</time>
      </trkpt>
      <trkpt lat="47.23888" lon="-1.55026">
        <ele>-8.01</ele>
        <time>2017-01-17T09:30:26Z</time>
      </trkpt>
      <trkpt lat="47.23906" lon="-1.55021">
        <ele>-7.48</ele>
        <time>2017-01-17T09:30:51Z</time>
      </trkpt>
      <trkpt lat="47.23928" lon="-1.5502">
        <ele>-7.53</ele>
        <time>2017-01-17T09:31:08Z</time>
      </trkpt>
      <trkpt lat="47.23946" lon="-1.55014">
        <ele>-7.59</ele>
        <time>2017-01-17T09:31:15Z</time>
      </trkpt>
      <trkpt lat="47.23962" lon="-1.55001">
        <ele>-7.69</ele>
        <time>2017-01-17T09:31:31Z</time>
      </trkpt>
      <trkpt lat="47.23981" lon="-1.54987">
        <ele>-7.65</ele>
        <time>2017-01-17T09:31:45Z</time>
      </trkpt>
      <trkpt lat="47.24" lon="-1.54976">
        <ele>-7.54</ele>
        <time>2017-01-17T09:31:54Z</time>
      </trkpt>
      <trkpt lat="47.24016" lon="-1.54962">
        <ele>-7.31</ele>
        <time>2017-01-17T09:32:08Z</time>
      </trkpt>
      <trkpt lat="47.24028" lon="-1.54941">
        <ele>-6.74</ele>
        <time>2017-01-17T09:32:22Z</time>
      </trkpt>
      <trkpt lat="47.24043" lon="-1.54922">
        <ele>-5.74</ele>
        <time>2017-01-17T09:32:38Z</time>
      </trkpt>
      <trkpt lat="47.24056" lon="-1.54902">
        <ele>-4.89</ele>
        <time>2017-01-17T09:32:55Z</time>
      </trkpt>
      <trkpt lat="47.24066" lon="-1.54878">
        <ele>-4.41</ele>
        <time>2017-01-17T09:33:05Z</time>
      </trkpt>
      <trkpt lat="47.24079" lon="-1.54858">
        <ele>-3.78</ele>
        <time>2017-01-17T09:33:20Z</time>
      </trkpt>
      <trkpt lat="47.24093" lon="-1.54842">
        <ele>-2.62</ele>
        <time>2017-01-17T09:33:40Z</time>
      </trkpt>
      <trkpt lat="47.24108" lon="-1.54825">
        <ele>-2.08</ele>
        <time>2017-01-17T09:33:52Z</time>
      </trkpt>
      <trkpt lat="47.24123" lon="-1.54809">
        <ele>-1.29</ele>
        <time>2017-01-17T09:34:16Z</time>
      </trkpt>
      <trkpt lat="47.24142" lon="-1.54806">
        <ele>-0.79</ele>
        <time>2017-01-17T09:34:36Z</time>
      </trkpt>
      <trkpt lat="47.24161" lon="-1.54806">
        <ele>-0.43</ele>
        <time>2017-01-17T09:34:49Z</time>
      </trkpt>
      <trkpt lat="47.2418" lon="-1.54811">
        <ele>-0.2</ele>
        <time>2017-01-17T09:35:00Z</time>
      </trkpt>
      <trkpt lat="47.24196" lon="-1.54823">
        <ele>0.05</ele>
        <time>2017-01-17T09:35:14Z</time>
      </trkpt>
      <trkpt lat="47.24215" lon="-1.54832">
        <ele>0.16</ele>
        <time>2017-01-17T09:35:22Z</time>
      </trkpt>
      <trkpt lat="47.24233" lon="-1.54833">
        <ele>0.16</ele>
        <time>2017-01-17T09:35:33Z</time>
      </trkpt>
      <trkpt lat="47.24252" lon="-1.54829">
        <ele>-0.11</ele>
        <time>2017-01-17T09:35:52Z</time>
      </trkpt>
      <trkpt lat="47.24269" lon="-1.54821">
        <ele>4.7</ele>
        <time>2017-01-17T09:36:12Z</time>
      </trkpt>
      <trkpt lat="47.24287" lon="-1.54815">
        <ele>-0.3</ele>
        <time>2017-01-17T09:36:37Z</time>
      </trkpt>
      <trkpt lat="47.24307" lon="-1.54811">
        <ele>-0.57</ele>
        <time>2017-01-17T09:36:43Z</time>
      </trkpt>
      <trkpt lat="47.24306" lon="-1.54783">
        <ele>-1.45</ele>
        <time>2017-01-17T09:37:33Z</time>
      </trkpt>
      <trkpt lat="47.24319" lon="-1.54764">
        <ele>-1.56</ele>
        <time>2017-01-17T09:37:50Z</time>
      </trkpt>
      <trkpt lat="47.24339" lon="-1.54759">
        <ele>-1.55</ele>
        <time>2017-01-17T09:37:58Z</time>
      </trkpt>
      <trkpt lat="47.24356" lon="-1.54746">
        <ele>-1.41</ele>
        <time>2017-01-17T09:38:08Z</time>
      </trkpt>
      <trkpt lat="47.24373" lon="-1.54731">
        <ele>-1.09</ele>
        <time>2017-01-17T09:38:19Z</time>
      </trkpt>
      <trkpt lat="47.2439" lon="-1.5472">
        <ele>-0.73</ele>
        <time>2017-01-17T09:38:29Z</time>
      </trkpt>
      <trkpt lat="47.24409" lon="-1.54714">
        <ele>-0.45</ele>
        <time>2017-01-17T09:38:36Z</time>
      </trkpt>
      <trkpt lat="47.24427" lon="-1.54702">
        <ele>0.03</ele>
        <time>2017-01-17T09:38:50Z</time>
      </trkpt>
      <trkpt lat="47.24446" lon="-1.54697">
        <ele>0.3</ele>
        <time>2017-01-17T09:38:57Z</time>
      </trkpt>
      <trkpt lat="47.24465" lon="-1.54697">
        <ele>0.43</ele>
        <time>2017-01-17T09:39:02Z</time>
      </trkpt>
      <trkpt lat="47.24482" lon="-1.54703">
        <ele>0.65</ele>
        <time>2017-01-17T09:39:23Z</time>
      </trkpt>
      <trkpt lat="47.24502" lon="-1.54707">
        <ele>0.56</ele>
        <time>2017-01-17T09:39:44Z</time>
      </trkpt>
      <trkpt lat="47.2452" lon="-1.54702">
        <ele>0.54</ele>
        <time>2017-01-17T09:39:53Z</time>
      </trkpt>
      <trkpt lat="47.2454" lon="-1.54695">
        <ele>0.72</ele>
        <time>2017-01-17T09:40:02Z</time>
      </trkpt>
      <trkpt lat="47.24558" lon="-1.54698">
        <ele>1.12</ele>
        <time>2017-01-17T09:40:21Z</time>
      </trkpt>
      <trkpt lat="47.24577" lon="-1.54704">
        <ele>1.47</ele>
        <time>2017-01-17T09:40:32Z</time>
      </trkpt>
      <trkpt lat="47.24592" lon="-1.54722">
        <ele>1.66</ele>
        <time>2017-01-17T09:40:41Z</time>
      </trkpt>
      <trkpt lat="47.24606" lon="-1.54741">
        <ele>2.29</ele>
        <time>2017-01-17T09:40:54Z</time>
      </trkpt>
      <trkpt lat="47.24618" lon="-1.54762">
        <ele>3.28</ele>
        <time>2017-01-17T09:41:07Z</time>
      </trkpt>
      <trkpt lat="47.24633" lon="-1.54778">
        <ele>4.4</ele>
        <time>2017-01-17T09:41:23Z</time>
      </trkpt>
      <trkpt lat="47.24646" lon="-1.54796">
        <ele>5.07</ele>
        <time>2017-01-17T09:41:35Z</time>
      </trkpt>
      <trkpt lat="47.24658" lon="-1.54819">
        <ele>6.14</ele>
        <time>2017-01-17T09:41:48Z</time>
      </trkpt>
      <trkpt lat="47.24673" lon="-1.54837">
        <ele>7.34</ele>
        <time>2017-01-17T09:42:07Z</time>
      </trkpt>
      <trkpt lat="47.2469" lon="-1.54848">
        <ele>7.31</ele>
        <time>2017-01-17T09:42:21Z</time>
      </trkpt>
      <trkpt lat="47.24705" lon="-1.54865">
        <ele>6.88</ele>
        <time>2017-01-17T09:42:32Z</time>
      </trkpt>
      <trkpt lat="47.24717" lon="-1.54886">
        <ele>6.39</ele>
        <time>2017-01-17T09:42:51Z</time>
      </trkpt>
      <trkpt lat="47.24728" lon="-1.54908">
        <ele>6.3</ele>
        <time>2017-01-17T09:43:06Z</time>
      </trkpt>
      <trkpt lat="47.24738" lon="-1.54931">
        <ele>6.87</ele>
        <time>2017-01-17T09:43:24Z</time>
      </trkpt>
      <trkpt lat="47.24748" lon="-1.54955">
        <ele>7.29</ele>
        <time>2017-01-17T09:43:37Z</time>
      </trkpt>
      <trkpt lat="47.24757" lon="-1.54978">
        <ele>8.09</ele>
        <time>2017-01-17T09:43:52Z</time>
      </trkpt>
      <trkpt lat="47.24768" lon="-1.54999">
        <ele>9.47</ele>
        <time>2017-01-17T09:44:15Z</time>
      </trkpt>
      <trkpt lat="47.24785" lon="-1.55009">
        <ele>10.12</ele>
        <time>2017-01-17T09:44:28Z</time>
      </trkpt>
      <trkpt lat="47.24793" lon="-1.55033">
        <ele>10.83</ele>
        <time>2017-01-17T09:44:45Z</time>
      </trkpt>
      <trkpt lat="47.24803" lon="-1.55056">
        <ele>11.24</ele>
        <time>2017-01-17T09:44:54Z</time>
      </trkpt>
      <trkpt lat="47.24814" lon="-1.55077">
        <ele>11.7</ele>
        <time>2017-01-17T09:45:05Z</time>
      </trkpt>
      <trkpt lat="47.24824" lon="-1.55101">
        <ele>12.54</ele>
        <time>2017-01-17T09:45:17Z</time>
      </trkpt>
      <trkpt lat="47.24829" lon="-1.55128">
        <ele>14.11</ele>
        <time>2017-01-17T09:45:33Z</time>
      </trkpt>
      <trkpt lat="47.24846" lon="-1.55143">
        <ele>16.43</ele>
        <time>2017-01-17T09:46:08Z</time>
      </trkpt>
      <trkpt lat="47.24862" lon="-1.5513">
        <ele>16.6</ele>
        <time>2017-01-17T09:46:20Z</time>
      </trkpt>
      <trkpt lat="47.24879" lon="-1.55119">
        <ele>16.87</ele>
        <time>2017-01-17T09:46:34Z</time>
      </trkpt>
      <trkpt lat="47.24894" lon="-1.55105">
        <ele>17.23</ele>
        <time>2017-01-17T09:46:47Z</time>
      </trkpt>
      <trkpt lat="47.2491" lon="-1.5509">
        <ele>17.76</ele>
        <time>2017-01-17T09:47:02Z</time>
      </trkpt>
      <trkpt lat="47.24927" lon="-1.5508">
        <ele>17.95</ele>
        <time>2017-01-17T09:47:17Z</time>
      </trkpt>
      <trkpt lat="47.24943" lon="-1.55067">
        <ele>17.76</ele>
        <time>2017-01-17T09:47:31Z</time>
      </trkpt>
      <trkpt lat="47.24961" lon="-1.55061">
        <ele>17.47</ele>
        <time>2017-01-17T09:47:45Z</time>
      </trkpt>
      <trkpt lat="47.24977" lon="-1.55047">
        <ele>17.25</ele>
        <time>2017-01-17T09:47:56Z</time>
      </trkpt>
      <trkpt lat="47.24993" lon="-1.55037">
        <ele>17.13</ele>
        <time>2017-01-17T09:48:10Z</time>
      </trkpt>
      <trkpt lat="47.25011" lon="-1.55027">
        <ele>17.13</ele>
        <time>2017-01-17T09:48:26Z</time>
      </trkpt>
      <trkpt lat="47.25029" lon="-1.55033">
        <ele>17.94</ele>
        <time>2017-01-17T09:48:50Z</time>
      </trkpt>
      <trkpt lat="47.25047" lon="-1.55021">
        <ele>18.26</ele>
        <time>2017-01-17T09:49:01Z</time>
      </trkpt>
      <trkpt lat="47.25065" lon="-1.55016">
        <ele>18.74</ele>
        <time>2017-01-17T09:49:13Z</time>
      </trkpt>
      <trkpt lat="47.25082" lon="-1.55005">
        <ele>19.38</ele>
        <time>2017-01-17T09:49:28Z</time>
      </trkpt>
      <trkpt lat="47.25099" lon="-1.54996">
        <ele>19.8</ele>
        <time>2017-01-17T09:49:42Z</time>
      </trkpt>
      <trkpt lat="47.25117" lon="-1.54987">
        <ele>19.93</ele>
        <time>2017-01-17T09:49:55Z</time>
      </trkpt>
      <trkpt lat="47.25135" lon="-1.5498">
        <ele>19.73</ele>
        <time>2017-01-17T09:50:10Z</time>
      </trkpt>
      <trkpt lat="47.25152" lon="-1.54968">
        <ele>19.2</ele>
        <time>2017-01-17T09:50:25Z</time>
      </trkpt>
      <trkpt lat="47.25169" lon="-1.54958">
        <ele>18.49</ele>
        <time>2017-01-17T09:50:39Z</time>
      </trkpt>
      <trkpt lat="47.25185" lon="-1.54945">
        <ele>17.29</ele>
        <time>2017-01-17T09:50:59Z</time>
      </trkpt>
      <trkpt lat="47.25205" lon="-1.54947">
        <ele>16.35</ele>
        <time>2017-01-17T09:51:15Z</time>
      </trkpt>
      <trkpt lat="47.25223" lon="-1.54954">
        <ele>15.88</ele>
        <time>2017-01-17T09:51:26Z</time>
      </trkpt>
      <trkpt lat="47.25235" lon="-1.54933">
        <ele>15.09</ele>
        <time>2017-01-17T09:51:40Z</time>
      </trkpt>
      <trkpt lat="47.25246" lon="-1.54911">
        <ele>13.57</ele>
        <time>2017-01-17T09:51:55Z</time>
      </trkpt>
      <trkpt lat="47.25256" lon="-1.54888">
        <ele>12.31</ele>
        <time>2017-01-17T09:52:06Z</time>
      </trkpt>
      <trkpt lat="47.25261" lon="-1.54862">
        <ele>11.15</ele>
        <time>2017-01-17T09:52:20Z</time>
      </trkpt>
      <trkpt lat="47.25273" lon="-1.54839">
        <ele>9.78</ele>
        <time>2017-01-17T09:52:35Z</time>
      </trkpt>
      <trkpt lat="47.25277" lon="-1.54811">
        <ele>9.12</ele>
        <time>2017-01-17T09:52:47Z</time>
      </trkpt>
      <trkpt lat="47.25279" lon="-1.54783">
        <ele>8.93</ele>
        <time>2017-01-17T09:53:02Z</time>
      </trkpt>
      <trkpt lat="47.25271" lon="-1.54757">
        <ele>8.93</ele>
        <time>2017-01-17T09:53:14Z</time>
      </trkpt>
      <trkpt lat="47.2526" lon="-1.54735">
        <ele>9.14</ele>
        <time>2017-01-17T09:53:23Z</time>
      </trkpt>
      <trkpt lat="47.25278" lon="-1.54742">
        <ele>9.53</ele>
        <time>2017-01-17T09:53:42Z</time>
      </trkpt>
      <trkpt lat="47.25291" lon="-1.5476">
        <ele>9.27</ele>
        <time>2017-01-17T09:53:52Z</time>
      </trkpt>
      <trkpt lat="47.25308" lon="-1.54769">
        <ele>8.71</ele>
        <time>2017-01-17T09:54:03Z</time>
      </trkpt>
      <trkpt lat="47.25326" lon="-1.54783">
        <ele>8.24</ele>
        <time>2017-01-17T09:54:13Z</time>
      </trkpt>
      <trkpt lat="47.2534" lon="-1.548">
        <ele>8.04</ele>
        <time>2017-01-17T09:54:27Z</time>
      </trkpt>
      <trkpt lat="47.25351" lon="-1.54777">
        <ele>8.05</ele>
        <time>2017-01-17T09:54:53Z</time>
      </trkpt>
      <trkpt lat="47.25362" lon="-1.54755">
        <ele>7.96</ele>
        <time>2017-01-17T09:55:04Z</time>
      </trkpt>
      <trkpt lat="47.25372" lon="-1.54732">
        <ele>7.68</ele>
        <time>2017-01-17T09:55:17Z</time>
      </trkpt>
      <trkpt lat="47.25385" lon="-1.54708">
        <ele>7.8</ele>
        <time>2017-01-17T09:55:31Z</time>
      </trkpt>
      <trkpt lat="47.25403" lon="-1.54704">
        <ele>8.07</ele>
        <time>2017-01-17T09:55:39Z</time>
      </trkpt>
      <trkpt lat="47.25406" lon="-1.54677">
        <ele>9.59</ele>
        <time>2017-01-17T09:56:04Z</time>
      </trkpt>
      <trkpt lat="47.25424" lon="-1.5467">
        <ele>10.18</ele>
        <time>2017-01-17T09:56:17Z</time>
      </trkpt>
      <trkpt lat="47.25443" lon="-1.54669">
        <ele>10.58</ele>
        <time>2017-01-17T09:56:31Z</time>
      </trkpt>
      <trkpt lat="47.2546" lon="-1.54679">
        <ele>10.8</ele>
        <time>2017-01-17T09:56:45Z</time>
      </trkpt>
      <trkpt lat="47.25478" lon="-1.54688">
        <ele>10.81</ele>
        <time>2017-01-17T09:56:52Z</time>
      </trkpt>
      <trkpt lat="47.25477" lon="-1.54716">
        <ele>10.75</ele>
        <time>2017-01-17T09:57:05Z</time>
      </trkpt>
      <trkpt lat="47.25488" lon="-1.54739">
        <ele>10.28</ele>
        <time>2017-01-17T09:57:25Z</time>
      </trkpt>
      <trkpt lat="47.255" lon="-1.54761">
        <ele>9.84</ele>
        <time>2017-01-17T09:57:34Z</time>
      </trkpt>
      <trkpt lat="47.25513" lon="-1.54782">
        <ele>9.42</ele>
        <time>2017-01-17T09:57:41Z</time>
      </trkpt>
      <trkpt lat="47.25514" lon="-1.54809">
        <ele>8.78</ele>
        <time>2017-01-17T09:57:57Z</time>
      </trkpt>
      <trkpt lat="47.25516" lon="-1.54836">
        <ele>8.24</ele>
        <time>2017-01-17T09:58:13Z</time>
      </trkpt>
      <trkpt lat="47.25517" lon="-1.54862">
        <ele>7.89</ele>
        <time>2017-01-17T09:58:28Z</time>
      </trkpt>
      <trkpt lat="47.25518" lon="-1.5489">
        <ele>7.46</ele>
        <time>2017-01-17T09:58:43Z</time>
      </trkpt>
      <trkpt lat="47.25517" lon="-1.54916">
        <ele>6.81</ele>
        <time>2017-01-17T09:58:58Z</time>
      </trkpt>
      <trkpt lat="47.25527" lon="-1.54939">
        <ele>6.25</ele>
        <time>2017-01-17T09:59:09Z</time>
      </trkpt>
      <trkpt lat="47.25522" lon="-1.54964">
        <ele>5.1</ele>
        <time>2017-01-17T09:59:26Z</time>
      </trkpt>
      <trkpt lat="47.25516" lon="-1.54991">
        <ele>4.35</ele>
        <time>2017-01-17T09:59:43Z</time>
      </trkpt>
      <trkpt lat="47.25524" lon="-1.55015">
        <ele>4.1</ele>
        <time>2017-01-17T09:59:54Z</time>
      </trkpt>
      <trkpt lat="47.25524" lon="-1.55044">
        <ele>4.21</ele>
        <time>2017-01-17T10:00:10Z</time>
      </trkpt>
      <trkpt lat="47.2553" lon="-1.55071">
        <ele>4.41</ele>
        <time>2017-01-17T10:00:20Z</time>
      </trkpt>
      <trkpt lat="47.25533" lon="-1.55101">
        <ele>4.53</ele>
        <time>2017-01-17T10:00:28Z</time>
      </trkpt>
      <trkpt lat="47.25537" lon="-1.55127">
        <ele>4.72</ele>
        <time>2017-01-17T10:00:43Z</time>
      </trkpt>
      <trkpt lat="47.25548" lon="-1.5515">
        <ele>4.96</ele>
        <time>2017-01-17T10:01:00Z</time>
      </trkpt>
      <trkpt lat="47.25563" lon="-1.55169">
        <ele>5.01</ele>
        <time>2017-01-17T10:01:09Z</time>
      </trkpt>
      <trkpt lat="47.25577" lon="-1.55188">
        <ele>4.48</ele>
        <time>2017-01-17T10:01:30Z</time>
      </trkpt>
      <trkpt lat="47.25586" lon="-1.55213">
        <ele>4.13</ele>
        <time>2017-01-17T10:01:44Z</time>
      </trkpt>
      <trkpt lat="47.256" lon="-1.55233">
        <ele>3.86</ele>
        <time>2017-01-17T10:01:56Z</time>
      </trkpt>
      <trkpt lat="47.25608" lon="-1.55257">
        <ele>3.51</ele>
        <time>2017-01-17T10:02:06Z</time>
      </trkpt>
      <trkpt lat="47.25615" lon="-1.55282">
        <ele>3.2</ele>
        <time>2017-01-17T10:02:20Z</time>
      </trkpt>
      <trkpt lat="47.25631" lon="-1.55298">
        <ele>2.98</ele>
        <time>2017-01-17T10:02:28Z</time>
      </trkpt>
      <trkpt lat="47.25646" lon="-1.55314">
        <ele>2.57</ele>
        <time>2017-01-17T10:02:40Z</time>
      </trkpt>
      <trkpt lat="47.25661" lon="-1.55332">
        <ele>2.26</ele>
        <time>2017-01-17T10:02:51Z</time>
      </trkpt>
      <trkpt lat="47.25672" lon="-1.55354">
        <ele>1.58</ele>
        <time>2017-01-17T10:03:08Z</time>
      </trkpt>
      <trkpt lat="47.25683" lon="-1.55378">
        <ele>2.06</ele>
        <time>2017-01-17T10:03:24Z</time>
      </trkpt>
      <trkpt lat="47.25697" lon="-1.55397">
        <ele>2.78</ele>
        <time>2017-01-17T10:03:33Z</time>
      </trkpt>
      <trkpt lat="47.25711" lon="-1.55416">
        <ele>3.13</ele>
        <time>2017-01-17T10:03:45Z</time>
      </trkpt>
      <trkpt lat="47.25717" lon="-1.55442">
        <ele>3.47</ele>
        <time>2017-01-17T10:04:00Z</time>
      </trkpt>
      <trkpt lat="47.25726" lon="-1.55467">
        <ele>4.33</ele>
        <time>2017-01-17T10:04:13Z</time>
      </trkpt>
      <trkpt lat="47.25739" lon="-1.55486">
        <ele>4.89</ele>
        <time>2017-01-17T10:04:24Z</time>
      </trkpt>
      <trkpt lat="47.2575" lon="-1.55507">
        <ele>5.2</ele>
        <time>2017-01-17T10:04:39Z</time>
      </trkpt>
      <trkpt lat="47.2576" lon="-1.55531">
        <ele>5.02</ele>
        <time>2017-01-17T10:04:52Z</time>
      </trkpt>
      <trkpt lat="47.25771" lon="-1.55554">
        <ele>3.49</ele>
        <time>2017-01-17T10:05:14Z</time>
      </trkpt>
      <trkpt lat="47.25767" lon="-1.5558">
        <ele>3.09</ele>
        <time>2017-01-17T10:05:47Z</time>
      </trkpt>
      <trkpt lat="47.25767" lon="-1.55608">
        <ele>4.27</ele>
        <time>2017-01-17T10:06:05Z</time>
      </trkpt>
      <trkpt lat="47.25773" lon="-1.55634">
        <ele>8.06</ele>
        <time>2017-01-17T10:06:44Z</time>
      </trkpt>
      <trkpt lat="47.25774" lon="-1.55663">
        <ele>9.21</ele>
        <time>2017-01-17T10:07:02Z</time>
      </trkpt>
      <trkpt lat="47.25767" lon="-1.5569">
        <ele>10.53</ele>
        <time>2017-01-17T10:07:33Z</time>
      </trkpt>
      <trkpt lat="47.25779" lon="-1.5571">
        <ele>11.11</ele>
        <time>2017-01-17T10:08:02Z</time>
      </trkpt>
      <trkpt lat="47.25797" lon="-1.55718">
        <ele>11.02</ele>
        <time>2017-01-17T10:08:13Z</time>
      </trkpt>
      <trkpt lat="47.25815" lon="-1.55725">
        <ele>10.64</ele>
        <time>2017-01-17T10:08:26Z</time>
      </trkpt>
      <trkpt lat="47.2583" lon="-1.55745">
        <ele>10.51</ele>
        <time>2017-01-17T10:08:48Z</time>
      </trkpt>
      <trkpt lat="47.2585" lon="-1.55746">
        <ele>11</ele>
        <time>2017-01-17T10:09:04Z</time>
      </trkpt>
      <trkpt lat="47.2587" lon="-1.55747">
        <ele>11.76</ele>
        <time>2017-01-17T10:09:18Z</time>
      </trkpt>
      <trkpt lat="47.25888" lon="-1.55744">
        <ele>12.35</ele>
        <time>2017-01-17T10:09:29Z</time>
      </trkpt>
      <trkpt lat="47.25908" lon="-1.55749">
        <ele>12.7</ele>
        <time>2017-01-17T10:09:37Z</time>
      </trkpt>
      <trkpt lat="47.25927" lon="-1.55751">
        <ele>12.91</ele>
        <time>2017-01-17T10:09:48Z</time>
      </trkpt>
      <trkpt lat="47.25945" lon="-1.5575">
        <ele>12.87</ele>
        <time>2017-01-17T10:10:01Z</time>
      </trkpt>
      <trkpt lat="47.2595" lon="-1.55724">
        <ele>11.17</ele>
        <time>2017-01-17T10:10:35Z</time>
      </trkpt>
      <trkpt lat="47.25944" lon="-1.55698">
        <ele>9.12</ele>
        <time>2017-01-17T10:10:52Z</time>
      </trkpt>
      <trkpt lat="47.2595" lon="-1.55672">
        <ele>6.43</ele>
        <time>2017-01-17T10:11:11Z</time>
      </trkpt>
      <trkpt lat="47.25959" lon="-1.55648">
        <ele>5.38</ele>
        <time>2017-01-17T10:11:23Z</time>
      </trkpt>
      <trkpt lat="47.25968" lon="-1.55624">
        <ele>3.62</ele>
        <time>2017-01-17T10:11:53Z</time>
      </trkpt>
      <trkpt lat="47.2598" lon="-1.55603">
        <ele>3.84</ele>
        <time>2017-01-17T10:12:14Z</time>
      </trkpt>
      <trkpt lat="47.25988" lon="-1.55579">
        <ele>4.29</ele>
        <time>2017-01-17T10:12:26Z</time>
      </trkpt>
      <trkpt lat="47.25995" lon="-1.55553">
        <ele>4.66</ele>
        <time>2017-01-17T10:12:37Z</time>
      </trkpt>
      <trkpt lat="47.26007" lon="-1.55533">
        <ele>4.85</ele>
        <time>2017-01-17T10:12:52Z</time>
      </trkpt>
      <trkpt lat="47.26019" lon="-1.55512">
        <ele>4.59</ele>
        <time>2017-01-17T10:13:10Z</time>
      </trkpt>
      <trkpt lat="47.2603" lon="-1.55489">
        <ele>3.69</ele>
        <time>2017-01-17T10:13:26Z</time>
      </trkpt>
      <trkpt lat="47.26038" lon="-1.55462">
        <ele>2.73</ele>
        <time>2017-01-17T10:13:37Z</time>
      </trkpt>
      <trkpt lat="47.26045" lon="-1.55437">
        <ele>1.53</ele>
        <time>2017-01-17T10:13:49Z</time>
      </trkpt>
      <trkpt lat="47.2605" lon="-1.55409">
        <ele>0.35</ele>
        <time>2017-01-17T10:14:00Z</time>
      </trkpt>
      <trkpt lat="47.26058" lon="-1.55384">
        <ele>-0.48</ele>
        <time>2017-01-17T10:14:12Z</time>
      </trkpt>
      <trkpt lat="47.26067" lon="-1.5536">
        <ele>-0.87</ele>
        <time>2017-01-17T10:14:24Z</time>
      </trkpt>
      <trkpt lat="47.26076" lon="-1.55337">
        <ele>-1.43</ele>
        <time>2017-01-17T10:14:41Z</time>
      </trkpt>
      <trkpt lat="47.2608" lon="-1.5531">
        <ele>-1.65</ele>
        <time>2017-01-17T10:14:54Z</time>
      </trkpt>
      <trkpt lat="47.26099" lon="-1.55309">
        <ele>-1.01</ele>
        <time>2017-01-17T10:15:13Z</time>
      </trkpt>
      <trkpt lat="47.26117" lon="-1.55315">
        <ele>-0.09</ele>
        <time>2017-01-17T10:15:25Z</time>
      </trkpt>
      <trkpt lat="47.26135" lon="-1.55327">
        <ele>1.25</ele>
        <time>2017-01-17T10:15:42Z</time>
      </trkpt>
      <trkpt lat="47.26153" lon="-1.55336">
        <ele>2.37</ele>
        <time>2017-01-17T10:16:00Z</time>
      </trkpt>
      <trkpt lat="47.2617" lon="-1.55346">
        <ele>3.67</ele>
        <time>2017-01-17T10:16:15Z</time>
      </trkpt>
      <trkpt lat="47.26188" lon="-1.55354">
        <ele>4.24</ele>
        <time>2017-01-17T10:16:22Z</time>
      </trkpt>
      <trkpt lat="47.26206" lon="-1.55351">
        <ele>5.32</ele>
        <time>2017-01-17T10:16:36Z</time>
      </trkpt>
      <trkpt lat="47.2622" lon="-1.55333">
        <ele>6.02</ele>
        <time>2017-01-17T10:16:46Z</time>
      </trkpt>
      <trkpt lat="47.26235" lon="-1.55316">
        <ele>6.8</ele>
        <time>2017-01-17T10:17:00Z</time>
      </trkpt>
      <trkpt lat="47.26248" lon="-1.55298">
        <ele>7.49</ele>
        <time>2017-01-17T10:17:17Z</time>
      </trkpt>
      <trkpt lat="47.2626" lon="-1.55276">
        <ele>7.87</ele>
        <time>2017-01-17T10:17:30Z</time>
      </trkpt>
      <trkpt lat="47.26271" lon="-1.55251">
        <ele>8.52</ele>
        <time>2017-01-17T10:17:44Z</time>
      </trkpt>
      <trkpt lat="47.26286" lon="-1.55232">
        <ele>9.02</ele>
        <time>2017-01-17T10:17:57Z</time>
      </trkpt>
      <trkpt lat="47.26299" lon="-1.55212">
        <ele>9.28</ele>
        <time>2017-01-17T10:18:09Z</time>
      </trkpt>
      <trkpt lat="47.26318" lon="-1.55206">
        <ele>11.63</ele>
        <time>2017-01-17T10:18:31Z</time>
      </trkpt>
      <trkpt lat="47.26335" lon="-1.55191">
        <ele>13.36</ele>
        <time>2017-01-17T10:18:44Z</time>
      </trkpt>
      <trkpt lat="47.26354" lon="-1.55191">
        <ele>15.4</ele>
        <time>2017-01-17T10:18:59Z</time>
      </trkpt>
      <trkpt lat="47.26373" lon="-1.55199">
        <ele>17.51</ele>
        <time>2017-01-17T10:19:13Z</time>
      </trkpt>
      <trkpt lat="47.2639" lon="-1.55209">
        <ele>18.93</ele>
        <time>2017-01-17T10:19:24Z</time>
      </trkpt>
      <trkpt lat="47.26407" lon="-1.5522">
        <ele>20.85</ele>
        <time>2017-01-17T10:19:40Z</time>
      </trkpt>
      <trkpt lat="47.26421" lon="-1.55239">
        <ele>22.71</ele>
        <time>2017-01-17T10:19:56Z</time>
      </trkpt>
      <trkpt lat="47.26436" lon="-1.55252">
        <ele>24.1</ele>
        <time>2017-01-17T10:20:09Z</time>
      </trkpt>
      <trkpt lat="47.26453" lon="-1.55262">
        <ele>25.29</ele>
        <time>2017-01-17T10:20:20Z</time>
      </trkpt>
      <trkpt lat="47.26469" lon="-1.55278">
        <ele>26.77</ele>
        <time>2017-01-17T10:20:34Z</time>
      </trkpt>
      <trkpt lat="47.26483" lon="-1.55297">
        <ele>28.44</ele>
        <time>2017-01-17T10:20:48Z</time>
      </trkpt>
      <trkpt lat="47.265" lon="-1.55312">
        <ele>29.76</ele>
        <time>2017-01-17T10:21:02Z</time>
      </trkpt>
      <trkpt lat="47.26514" lon="-1.55328">
        <ele>30.29</ele>
        <time>2017-01-17T10:21:11Z</time>
      </trkpt>
      <trkpt lat="47.26529" lon="-1.55314">
        <ele>31.33</ele>
        <time>2017-01-17T10:21:35Z</time>
      </trkpt>
      <trkpt lat="47.26542" lon="-1.55294">
        <ele>31.06</ele>
        <time>2017-01-17T10:21:48Z</time>
      </trkpt>
      <trkpt lat="47.26555" lon="-1.55275">
        <ele>30.03</ele>
        <time>2017-01-17T10:22:04Z</time>
      </trkpt>
      <trkpt lat="47.26565" lon="-1.5525">
        <ele>28.7</ele>
        <time>2017-01-17T10:22:19Z</time>
      </trkpt>
      <trkpt lat="47.26578" lon="-1.55231">
        <ele>27.32</ele>
        <time>2017-01-17T10:22:34Z</time>
      </trkpt>
      <trkpt lat="47.26596" lon="-1.5524">
        <ele>26.38</ele>
        <time>2017-01-17T10:22:51Z</time>
      </trkpt>
      <trkpt lat="47.26613" lon="-1.55249">
        <ele>26.42</ele>
        <time>2017-01-17T10:23:02Z</time>
      </trkpt>
      <trkpt lat="47.26631" lon="-1.55259">
        <ele>27.08</ele>
        <time>2017-01-17T10:23:17Z</time>
      </trkpt>
      <trkpt lat="47.26648" lon="-1.55271">
        <ele>27.61</ele>
        <time>2017-01-17T10:23:27Z</time>
      </trkpt>
      <trkpt lat="47.26663" lon="-1.55287">
        <ele>27.99</ele>
        <time>2017-01-17T10:23:41Z</time>
      </trkpt>
      <trkpt lat="47.26679" lon="-1.553">
        <ele>27.53</ele>
        <time>2017-01-17T10:24:01Z</time>
      </trkpt>
      <trkpt lat="47.26698" lon="-1.55305">
        <ele>26.91</ele>
        <time>2017-01-17T10:24:13Z</time>
      </trkpt>
      <trkpt lat="47.26716" lon="-1.55307">
        <ele>26.31</ele>
        <time>2017-01-17T10:24:25Z</time>
      </trkpt>
      <trkpt lat="47.26735" lon="-1.55312">
        <ele>25.73</ele>
        <time>2017-01-17T10:24:38Z</time>
      </trkpt>
      <trkpt lat="47.26753" lon="-1.5532">
        <ele>25.38</ele>
        <time>2017-01-17T10:24:50Z</time>
      </trkpt>
      <trkpt lat="47.26771" lon="-1.55329">
        <ele>25.09</ele>
        <time>2017-01-17T10:25:02Z</time>
      </trkpt>
      <trkpt lat="47.26789" lon="-1.55326">
        <ele>23.89</ele>
        <time>2017-01-17T10:25:25Z</time>
      </trkpt>
      <trkpt lat="47.26802" lon="-1.55306">
        <ele>22.97</ele>
        <time>2017-01-17T10:25:39Z</time>
      </trkpt>
      <trkpt lat="47.26819" lon="-1.55297">
        <ele>22.44</ele>
        <time>2017-01-17T10:25:51Z</time>
      </trkpt>
      <trkpt lat="47.26836" lon="-1.55282">
        <ele>22.09</ele>
        <time>2017-01-17T10:26:05Z</time>
      </trkpt>
      <trkpt lat="47.26853" lon="-1.5527">
        <ele>22.1</ele>
        <time>2017-01-17T10:26:19Z</time>
      </trkpt>
      <trkpt lat="47.26871" lon="-1.55266">
        <ele>22.39</ele>
        <time>2017-01-17T10:26:34Z</time>
      </trkpt>
      <trkpt lat="47.26889" lon="-1.55259">
        <ele>22.89</ele>
        <time>2017-01-17T10:26:49Z</time>
      </trkpt>
      <trkpt lat="47.26907" lon="-1.55249">
        <ele>23.31</ele>
        <time>2017-01-17T10:27:00Z</time>
      </trkpt>
      <trkpt lat="47.26924" lon="-1.5524">
        <ele>23.77</ele>
        <time>2017-01-17T10:27:13Z</time>
      </trkpt>
      <trkpt lat="47.26943" lon="-1.55233">
        <ele>24.16</ele>
        <time>2017-01-17T10:27:30Z</time>
      </trkpt>
      <trkpt lat="47.26961" lon="-1.55226">
        <ele>24.11</ele>
        <time>2017-01-17T10:27:43Z</time>
      </trkpt>
      <trkpt lat="47.26979" lon="-1.5522">
        <ele>24.03</ele>
        <time>2017-01-17T10:27:59Z</time>
      </trkpt>
    </trkseg>
  </trk>
</gpx>